
<gpx xmlns="http://www.topografix.com/GPX/1/1" xmlns:gpxx="http://www.garmin.com/xmlschemas/GpxExtensions/v3" xmlns:wptx1="http://www.garmin.com/xmlschemas/WaypointExtension/v1" xmlns:xsi="http://www.w3.org/2001/XMLSchema-instance" version="1.1" creator="Adze - https://getadze.com/" xsi:schemaLocation="http://www.topografix.com/GPX/1/1 http://www.topografix.com/GPX/1/1/gpx.xsd http://www.garmin.com/xmlschemas/GpxExtensions/v3 http://www8.garmin.com/xmlschemas/GpxExtensionsv3.xsd http://www.garmin.com/xmlschemas/WaypointExtension/v1 http://www8.garmin.com/xmlschemas/WaypointExtensionv1.xsd">
    <metadata>
        <name>Untitled Document</name>
        <link href="http://www.garmin.com"></link>
        <time>2018-03-05T07:13:17.144Z</time>
    </metadata>
    <wpt lon="100.093329" lat="15.466187">
        <ele>28.000000</ele>
        <name>Country Lake Resort</name>
        <sym>Waypoint</sym>
        <type>user</type>
        <extensions>
            <gpxx:WaypointExtension>
                <gpxx:DisplayMode>SymbolAndName</gpxx:DisplayMode>
            </gpxx:WaypointExtension>
            <wptx1:WaypointExtension>
                <wptx1:DisplayMode>SymbolAndName</wptx1:DisplayMode>
            </wptx1:WaypointExtension>
        </extensions>
    </wpt>
    <trk>
        <name>October 2005 - Saturday</name>
        <extensions>
            <gpxx:TrackExtension>
                <gpxx:DisplayColor>DarkGray</gpxx:DisplayColor>
            </gpxx:TrackExtension>
        </extensions>
        <trkseg>
            <trkpt lon="100.094354" lat="15.466926">
                <ele>58.297119</ele>
                <time>2005-10-29T06:11:36Z</time>
            </trkpt>
            <trkpt lon="100.094461" lat="15.466926">
                <ele>58.297119</ele>
                <time>2005-10-29T06:11:46Z</time>
            </trkpt>
            <trkpt lon="100.094461" lat="15.467119">
                <ele>58.297119</ele>
                <time>2005-10-29T06:13:16Z</time>
            </trkpt>
            <trkpt lon="100.094740" lat="15.467355">
                <ele>57.816528</ele>
                <time>2005-10-29T06:13:32Z</time>
            </trkpt>
            <trkpt lon="100.094783" lat="15.467312">
                <ele>57.816528</ele>
                <time>2005-10-29T06:13:46Z</time>
            </trkpt>
            <trkpt lon="100.094783" lat="15.467205">
                <ele>26.573608</ele>
                <time>2005-10-29T06:14:48Z</time>
            </trkpt>
            <trkpt lon="100.094976" lat="15.466948">
                <ele>26.573608</ele>
                <time>2005-10-29T06:14:58Z</time>
            </trkpt>
            <trkpt lon="100.095491" lat="15.466239">
                <ele>26.573608</ele>
                <time>2005-10-29T06:15:17Z</time>
            </trkpt>
            <trkpt lon="100.096178" lat="15.465252">
                <ele>26.092896</ele>
                <time>2005-10-29T06:15:39Z</time>
            </trkpt>
            <trkpt lon="100.097358" lat="15.463922">
                <ele>25.131714</ele>
                <time>2005-10-29T06:16:16Z</time>
            </trkpt>
            <trkpt lon="100.097659" lat="15.463622">
                <ele>24.651001</ele>
                <time>2005-10-29T06:16:26Z</time>
            </trkpt>
            <trkpt lon="100.098302" lat="15.462742">
                <ele>21.286377</ele>
                <time>2005-10-29T06:16:52Z</time>
            </trkpt>
            <trkpt lon="100.099139" lat="15.461841">
                <ele>20.324951</ele>
                <time>2005-10-29T06:17:19Z</time>
            </trkpt>
            <trkpt lon="100.099955" lat="15.460703">
                <ele>17.441162</ele>
                <time>2005-10-29T06:17:47Z</time>
            </trkpt>
            <trkpt lon="100.100491" lat="15.460081">
                <ele>16.960449</ele>
                <time>2005-10-29T06:18:04Z</time>
            </trkpt>
            <trkpt lon="100.100791" lat="15.459974">
                <ele>16.960449</ele>
                <time>2005-10-29T06:18:10Z</time>
            </trkpt>
            <trkpt lon="100.101070" lat="15.459995">
                <ele>16.479736</ele>
                <time>2005-10-29T06:18:15Z</time>
            </trkpt>
            <trkpt lon="100.101993" lat="15.460103">
                <ele>17.441162</ele>
                <time>2005-10-29T06:18:32Z</time>
            </trkpt>
            <trkpt lon="100.102186" lat="15.460274">
                <ele>18.883057</ele>
                <time>2005-10-29T06:18:37Z</time>
            </trkpt>
            <trkpt lon="100.102379" lat="15.461068">
                <ele>18.402344</ele>
                <time>2005-10-29T06:18:52Z</time>
            </trkpt>
            <trkpt lon="100.102465" lat="15.461197">
                <ele>18.402344</ele>
                <time>2005-10-29T06:18:55Z</time>
            </trkpt>
            <trkpt lon="100.102680" lat="15.461261">
                <ele>18.402344</ele>
                <time>2005-10-29T06:18:59Z</time>
            </trkpt>
            <trkpt lon="100.102873" lat="15.461240">
                <ele>18.883057</ele>
                <time>2005-10-29T06:19:03Z</time>
            </trkpt>
            <trkpt lon="100.103002" lat="15.461175">
                <ele>18.883057</ele>
                <time>2005-10-29T06:19:06Z</time>
            </trkpt>
            <trkpt lon="100.103238" lat="15.461304">
                <ele>20.324951</ele>
                <time>2005-10-29T06:19:13Z</time>
            </trkpt>
            <trkpt lon="100.103559" lat="15.461819">
                <ele>19.844360</ele>
                <time>2005-10-29T06:19:29Z</time>
            </trkpt>
            <trkpt lon="100.103216" lat="15.462034">
                <ele>18.402344</ele>
                <time>2005-10-29T06:19:39Z</time>
            </trkpt>
            <trkpt lon="100.102508" lat="15.462527">
                <ele>16.479736</ele>
                <time>2005-10-29T06:19:56Z</time>
            </trkpt>
            <trkpt lon="100.101972" lat="15.462935">
                <ele>18.402344</ele>
                <time>2005-10-29T06:20:13Z</time>
            </trkpt>
            <trkpt lon="100.102015" lat="15.462914">
                <ele>18.402344</ele>
                <time>2005-10-29T06:20:18Z</time>
            </trkpt>
            <trkpt lon="100.102401" lat="15.462656">
                <ele>20.324951</ele>
                <time>2005-10-29T06:20:33Z</time>
            </trkpt>
            <trkpt lon="100.103216" lat="15.462034">
                <ele>18.402344</ele>
                <time>2005-10-29T06:20:55Z</time>
            </trkpt>
            <trkpt lon="100.104139" lat="15.461476">
                <ele>15.999023</ele>
                <time>2005-10-29T06:21:19Z</time>
            </trkpt>
            <trkpt lon="100.104825" lat="15.461283">
                <ele>16.960449</ele>
                <time>2005-10-29T06:21:32Z</time>
            </trkpt>
            <trkpt lon="100.104890" lat="15.461411">
                <ele>17.441162</ele>
                <time>2005-10-29T06:21:36Z</time>
            </trkpt>
            <trkpt lon="100.104954" lat="15.462399">
                <ele>17.921753</ele>
                <time>2005-10-29T06:21:54Z</time>
            </trkpt>
            <trkpt lon="100.105212" lat="15.463686">
                <ele>20.324951</ele>
                <time>2005-10-29T06:22:14Z</time>
            </trkpt>
            <trkpt lon="100.105405" lat="15.465188">
                <ele>21.286377</ele>
                <time>2005-10-29T06:22:36Z</time>
            </trkpt>
            <trkpt lon="100.105641" lat="15.466518">
                <ele>22.728271</ele>
                <time>2005-10-29T06:22:56Z</time>
            </trkpt>
            <trkpt lon="100.105898" lat="15.467935">
                <ele>22.728271</ele>
                <time>2005-10-29T06:23:18Z</time>
            </trkpt>
            <trkpt lon="100.106306" lat="15.469308">
                <ele>21.766968</ele>
                <time>2005-10-29T06:23:41Z</time>
            </trkpt>
            <trkpt lon="100.106714" lat="15.470724">
                <ele>20.805664</ele>
                <time>2005-10-29T06:24:06Z</time>
            </trkpt>
            <trkpt lon="100.106757" lat="15.470874">
                <ele>20.805664</ele>
                <time>2005-10-29T06:24:09Z</time>
            </trkpt>
            <trkpt lon="100.106542" lat="15.471025">
                <ele>20.805664</ele>
                <time>2005-10-29T06:24:15Z</time>
            </trkpt>
            <trkpt lon="100.105233" lat="15.471153">
                <ele>19.844360</ele>
                <time>2005-10-29T06:24:37Z</time>
            </trkpt>
            <trkpt lon="100.105169" lat="15.471153">
                <ele>19.844360</ele>
                <time>2005-10-29T06:24:38Z</time>
            </trkpt>
            <trkpt lon="100.104933" lat="15.471261">
                <ele>19.844360</ele>
                <time>2005-10-29T06:24:42Z</time>
            </trkpt>
            <trkpt lon="100.104825" lat="15.471303">
                <ele>19.844360</ele>
                <time>2005-10-29T06:24:44Z</time>
            </trkpt>
            <trkpt lon="100.104139" lat="15.471883">
                <ele>17.441162</ele>
                <time>2005-10-29T06:24:59Z</time>
            </trkpt>
            <trkpt lon="100.104074" lat="15.471969">
                <ele>17.441162</ele>
                <time>2005-10-29T06:25:01Z</time>
            </trkpt>
            <trkpt lon="100.103109" lat="15.472527">
                <ele>17.921753</ele>
                <time>2005-10-29T06:25:19Z</time>
            </trkpt>
            <trkpt lon="100.101199" lat="15.472956">
                <ele>18.402344</ele>
                <time>2005-10-29T06:25:49Z</time>
            </trkpt>
            <trkpt lon="100.099783" lat="15.473428">
                <ele>13.115112</ele>
                <time>2005-10-29T06:26:12Z</time>
            </trkpt>
            <trkpt lon="100.099311" lat="15.473599">
                <ele>15.037720</ele>
                <time>2005-10-29T06:26:22Z</time>
            </trkpt>
            <trkpt lon="100.099118" lat="15.473363">
                <ele>16.960449</ele>
                <time>2005-10-29T06:26:35Z</time>
            </trkpt>
            <trkpt lon="100.098925" lat="15.473063">
                <ele>18.402344</ele>
                <time>2005-10-29T06:26:50Z</time>
            </trkpt>
            <trkpt lon="100.098817" lat="15.472999">
                <ele>18.402344</ele>
                <time>2005-10-29T06:27:01Z</time>
            </trkpt>
            <trkpt lon="100.098839" lat="15.472977">
                <ele>16.960449</ele>
                <time>2005-10-29T06:27:21Z</time>
            </trkpt>
            <trkpt lon="100.098882" lat="15.472999">
                <ele>22.728271</ele>
                <time>2005-10-29T06:28:27Z</time>
            </trkpt>
            <trkpt lon="100.098882" lat="15.472999">
                <ele>22.728271</ele>
                <time>2005-10-29T06:28:33Z</time>
            </trkpt>
            <trkpt lon="100.098925" lat="15.473020">
                <ele>21.286377</ele>
                <time>2005-10-29T06:28:38Z</time>
            </trkpt>
            <trkpt lon="100.099139" lat="15.473299">
                <ele>20.805664</ele>
                <time>2005-10-29T06:28:54Z</time>
            </trkpt>
            <trkpt lon="100.099289" lat="15.473514">
                <ele>19.844360</ele>
                <time>2005-10-29T06:29:04Z</time>
            </trkpt>
            <trkpt lon="100.099010" lat="15.473621">
                <ele>18.402344</ele>
                <time>2005-10-29T06:29:14Z</time>
            </trkpt>
            <trkpt lon="100.097959" lat="15.473793">
                <ele>18.402344</ele>
                <time>2005-10-29T06:29:35Z</time>
            </trkpt>
            <trkpt lon="100.097401" lat="15.473964">
                <ele>17.921753</ele>
                <time>2005-10-29T06:29:45Z</time>
            </trkpt>
            <trkpt lon="100.096371" lat="15.474179">
                <ele>17.921753</ele>
                <time>2005-10-29T06:30:03Z</time>
            </trkpt>
            <trkpt lon="100.095363" lat="15.474372">
                <ele>18.402344</ele>
                <time>2005-10-29T06:30:20Z</time>
            </trkpt>
            <trkpt lon="100.094182" lat="15.474501">
                <ele>18.883057</ele>
                <time>2005-10-29T06:30:39Z</time>
            </trkpt>
            <trkpt lon="100.093131" lat="15.474801">
                <ele>19.844360</ele>
                <time>2005-10-29T06:30:58Z</time>
            </trkpt>
            <trkpt lon="100.092852" lat="15.474844">
                <ele>19.844360</ele>
                <time>2005-10-29T06:31:03Z</time>
            </trkpt>
            <trkpt lon="100.091801" lat="15.474694">
                <ele>20.805664</ele>
                <time>2005-10-29T06:31:22Z</time>
            </trkpt>
            <trkpt lon="100.090857" lat="15.474908">
                <ele>18.883057</ele>
                <time>2005-10-29T06:31:41Z</time>
            </trkpt>
            <trkpt lon="100.089827" lat="15.475123">
                <ele>20.324951</ele>
                <time>2005-10-29T06:31:59Z</time>
            </trkpt>
            <trkpt lon="100.088990" lat="15.475230">
                <ele>19.844360</ele>
                <time>2005-10-29T06:32:13Z</time>
            </trkpt>
            <trkpt lon="100.088689" lat="15.475316">
                <ele>19.363770</ele>
                <time>2005-10-29T06:32:18Z</time>
            </trkpt>
            <trkpt lon="100.088260" lat="15.475531">
                <ele>18.402344</ele>
                <time>2005-10-29T06:32:27Z</time>
            </trkpt>
            <trkpt lon="100.087230" lat="15.476282">
                <ele>18.883057</ele>
                <time>2005-10-29T06:32:49Z</time>
            </trkpt>
            <trkpt lon="100.086823" lat="15.476947">
                <ele>16.960449</ele>
                <time>2005-10-29T06:33:03Z</time>
            </trkpt>
            <trkpt lon="100.086501" lat="15.477355">
                <ele>16.960449</ele>
                <time>2005-10-29T06:33:11Z</time>
            </trkpt>
            <trkpt lon="100.086393" lat="15.477440">
                <ele>17.441162</ele>
                <time>2005-10-29T06:33:13Z</time>
            </trkpt>
            <trkpt lon="100.085664" lat="15.477633">
                <ele>17.441162</ele>
                <time>2005-10-29T06:33:25Z</time>
            </trkpt>
            <trkpt lon="100.084527" lat="15.477848">
                <ele>16.960449</ele>
                <time>2005-10-29T06:33:42Z</time>
            </trkpt>
            <trkpt lon="100.083368" lat="15.478342">
                <ele>17.921753</ele>
                <time>2005-10-29T06:34:02Z</time>
            </trkpt>
            <trkpt lon="100.081995" lat="15.479136">
                <ele>18.402344</ele>
                <time>2005-10-29T06:34:27Z</time>
            </trkpt>
            <trkpt lon="100.080621" lat="15.480058">
                <ele>18.402344</ele>
                <time>2005-10-29T06:34:53Z</time>
            </trkpt>
            <trkpt lon="100.080171" lat="15.480444">
                <ele>16.960449</ele>
                <time>2005-10-29T06:35:03Z</time>
            </trkpt>
            <trkpt lon="100.079699" lat="15.481024">
                <ele>18.402344</ele>
                <time>2005-10-29T06:35:15Z</time>
            </trkpt>
            <trkpt lon="100.079505" lat="15.481710">
                <ele>18.883057</ele>
                <time>2005-10-29T06:35:28Z</time>
            </trkpt>
            <trkpt lon="100.079613" lat="15.481818">
                <ele>18.883057</ele>
                <time>2005-10-29T06:35:33Z</time>
            </trkpt>
            <trkpt lon="100.080364" lat="15.482075">
                <ele>17.921753</ele>
                <time>2005-10-29T06:35:49Z</time>
            </trkpt>
            <trkpt lon="100.081351" lat="15.482376">
                <ele>16.960449</ele>
                <time>2005-10-29T06:36:08Z</time>
            </trkpt>
            <trkpt lon="100.082316" lat="15.482697">
                <ele>17.441162</ele>
                <time>2005-10-29T06:36:28Z</time>
            </trkpt>
            <trkpt lon="100.082638" lat="15.482805">
                <ele>17.921753</ele>
                <time>2005-10-29T06:36:36Z</time>
            </trkpt>
            <trkpt lon="100.082617" lat="15.483084">
                <ele>18.402344</ele>
                <time>2005-10-29T06:36:44Z</time>
            </trkpt>
            <trkpt lon="100.082316" lat="15.483963">
                <ele>17.441162</ele>
                <time>2005-10-29T06:37:04Z</time>
            </trkpt>
            <trkpt lon="100.082424" lat="15.484049">
                <ele>17.441162</ele>
                <time>2005-10-29T06:37:08Z</time>
            </trkpt>
            <trkpt lon="100.082960" lat="15.484200">
                <ele>17.441162</ele>
                <time>2005-10-29T06:37:21Z</time>
            </trkpt>
            <trkpt lon="100.083132" lat="15.484371">
                <ele>17.921753</ele>
                <time>2005-10-29T06:37:27Z</time>
            </trkpt>
            <trkpt lon="100.083110" lat="15.484650">
                <ele>17.921753</ele>
                <time>2005-10-29T06:37:33Z</time>
            </trkpt>
            <trkpt lon="100.083046" lat="15.485165">
                <ele>17.921753</ele>
                <time>2005-10-29T06:37:44Z</time>
            </trkpt>
            <trkpt lon="100.083025" lat="15.486238">
                <ele>19.363770</ele>
                <time>2005-10-29T06:38:06Z</time>
            </trkpt>
            <trkpt lon="100.083003" lat="15.486624">
                <ele>19.844360</ele>
                <time>2005-10-29T06:38:14Z</time>
            </trkpt>
            <trkpt lon="100.083003" lat="15.486774">
                <ele>18.883057</ele>
                <time>2005-10-29T06:38:19Z</time>
            </trkpt>
            <trkpt lon="100.083003" lat="15.487418">
                <ele>19.844360</ele>
                <time>2005-10-29T06:38:35Z</time>
            </trkpt>
            <trkpt lon="100.083089" lat="15.487869">
                <ele>20.805664</ele>
                <time>2005-10-29T06:38:45Z</time>
            </trkpt>
            <trkpt lon="100.083196" lat="15.488405">
                <ele>20.805664</ele>
                <time>2005-10-29T06:38:58Z</time>
            </trkpt>
            <trkpt lon="100.083218" lat="15.488491">
                <ele>20.324951</ele>
                <time>2005-10-29T06:39:00Z</time>
            </trkpt>
            <trkpt lon="100.083303" lat="15.488963">
                <ele>20.805664</ele>
                <time>2005-10-29T06:39:10Z</time>
            </trkpt>
            <trkpt lon="100.083411" lat="15.489414">
                <ele>22.247559</ele>
                <time>2005-10-29T06:39:23Z</time>
            </trkpt>
            <trkpt lon="100.083411" lat="15.489457">
                <ele>20.805664</ele>
                <time>2005-10-29T06:39:36Z</time>
            </trkpt>
            <trkpt lon="100.083411" lat="15.489457">
                <ele>21.286377</ele>
                <time>2005-10-29T06:40:15Z</time>
            </trkpt>
            <trkpt lon="100.083411" lat="15.489435">
                <ele>21.766968</ele>
                <time>2005-10-29T06:40:18Z</time>
            </trkpt>
            <trkpt lon="100.083346" lat="15.489414">
                <ele>21.766968</ele>
                <time>2005-10-29T06:40:22Z</time>
            </trkpt>
            <trkpt lon="100.082853" lat="15.489392">
                <ele>20.324951</ele>
                <time>2005-10-29T06:40:37Z</time>
            </trkpt>
            <trkpt lon="100.082252" lat="15.489414">
                <ele>19.363770</ele>
                <time>2005-10-29T06:40:54Z</time>
            </trkpt>
            <trkpt lon="100.081630" lat="15.489542">
                <ele>18.883057</ele>
                <time>2005-10-29T06:41:08Z</time>
            </trkpt>
            <trkpt lon="100.081201" lat="15.489693">
                <ele>18.883057</ele>
                <time>2005-10-29T06:41:18Z</time>
            </trkpt>
            <trkpt lon="100.080857" lat="15.490015">
                <ele>15.999023</ele>
                <time>2005-10-29T06:41:32Z</time>
            </trkpt>
            <trkpt lon="100.080321" lat="15.490637">
                <ele>14.557007</ele>
                <time>2005-10-29T06:41:51Z</time>
            </trkpt>
            <trkpt lon="100.079913" lat="15.490723">
                <ele>16.479736</ele>
                <time>2005-10-29T06:42:01Z</time>
            </trkpt>
            <trkpt lon="100.079741" lat="15.490723">
                <ele>16.960449</ele>
                <time>2005-10-29T06:42:05Z</time>
            </trkpt>
            <trkpt lon="100.079248" lat="15.490594">
                <ele>15.037720</ele>
                <time>2005-10-29T06:42:16Z</time>
            </trkpt>
            <trkpt lon="100.078540" lat="15.490358">
                <ele>16.479736</ele>
                <time>2005-10-29T06:42:32Z</time>
            </trkpt>
            <trkpt lon="100.078411" lat="15.490336">
                <ele>15.999023</ele>
                <time>2005-10-29T06:42:35Z</time>
            </trkpt>
            <trkpt lon="100.077488" lat="15.490015">
                <ele>17.921753</ele>
                <time>2005-10-29T06:42:54Z</time>
            </trkpt>
            <trkpt lon="100.076802" lat="15.489757">
                <ele>19.844360</ele>
                <time>2005-10-29T06:43:11Z</time>
            </trkpt>
            <trkpt lon="100.076780" lat="15.489779">
                <ele>21.766968</ele>
                <time>2005-10-29T06:43:25Z</time>
            </trkpt>
            <trkpt lon="100.076780" lat="15.489757">
                <ele>18.883057</ele>
                <time>2005-10-29T06:44:10Z</time>
            </trkpt>
            <trkpt lon="100.076759" lat="15.489886">
                <ele>19.844360</ele>
                <time>2005-10-29T06:44:16Z</time>
            </trkpt>
            <trkpt lon="100.076587" lat="15.490465">
                <ele>18.883057</ele>
                <time>2005-10-29T06:44:31Z</time>
            </trkpt>
            <trkpt lon="100.076501" lat="15.491431">
                <ele>18.883057</ele>
                <time>2005-10-29T06:44:49Z</time>
            </trkpt>
            <trkpt lon="100.076480" lat="15.491838">
                <ele>18.402344</ele>
                <time>2005-10-29T06:44:57Z</time>
            </trkpt>
            <trkpt lon="100.076458" lat="15.492053">
                <ele>18.402344</ele>
                <time>2005-10-29T06:45:01Z</time>
            </trkpt>
            <trkpt lon="100.076480" lat="15.492203">
                <ele>18.402344</ele>
                <time>2005-10-29T06:45:04Z</time>
            </trkpt>
            <trkpt lon="100.076416" lat="15.492461">
                <ele>18.402344</ele>
                <time>2005-10-29T06:45:15Z</time>
            </trkpt>
            <trkpt lon="100.076458" lat="15.492482">
                <ele>16.960449</ele>
                <time>2005-10-29T06:45:53Z</time>
            </trkpt>
            <trkpt lon="100.076480" lat="15.492525">
                <ele>17.921753</ele>
                <time>2005-10-29T06:46:08Z</time>
            </trkpt>
            <trkpt lon="100.076501" lat="15.492568">
                <ele>17.921753</ele>
                <time>2005-10-29T06:46:22Z</time>
            </trkpt>
            <trkpt lon="100.076609" lat="15.492718">
                <ele>22.247559</ele>
                <time>2005-10-29T06:46:53Z</time>
            </trkpt>
            <trkpt lon="100.076652" lat="15.492761">
                <ele>20.324951</ele>
                <time>2005-10-29T06:47:03Z</time>
            </trkpt>
            <trkpt lon="100.076673" lat="15.492804">
                <ele>19.363770</ele>
                <time>2005-10-29T06:47:12Z</time>
            </trkpt>
            <trkpt lon="100.076866" lat="15.492933">
                <ele>17.921753</ele>
                <time>2005-10-29T06:47:23Z</time>
            </trkpt>
            <trkpt lon="100.076866" lat="15.492954">
                <ele>17.441162</ele>
                <time>2005-10-29T06:47:37Z</time>
            </trkpt>
            <trkpt lon="100.076866" lat="15.492954">
                <ele>15.999023</ele>
                <time>2005-10-29T06:47:52Z</time>
            </trkpt>
            <trkpt lon="100.076845" lat="15.492954">
                <ele>13.595825</ele>
                <time>2005-10-29T06:48:46Z</time>
            </trkpt>
            <trkpt lon="100.076759" lat="15.493019">
                <ele>13.595825</ele>
                <time>2005-10-29T06:48:52Z</time>
            </trkpt>
            <trkpt lon="100.076351" lat="15.493169">
                <ele>15.518433</ele>
                <time>2005-10-29T06:49:06Z</time>
            </trkpt>
            <trkpt lon="100.076051" lat="15.493212">
                <ele>16.479736</ele>
                <time>2005-10-29T06:49:14Z</time>
            </trkpt>
            <trkpt lon="100.075943" lat="15.493362">
                <ele>16.960449</ele>
                <time>2005-10-29T06:49:19Z</time>
            </trkpt>
            <trkpt lon="100.075815" lat="15.493963">
                <ele>18.402344</ele>
                <time>2005-10-29T06:49:33Z</time>
            </trkpt>
            <trkpt lon="100.075686" lat="15.494413">
                <ele>16.960449</ele>
                <time>2005-10-29T06:49:43Z</time>
            </trkpt>
            <trkpt lon="100.075622" lat="15.494585">
                <ele>16.960449</ele>
                <time>2005-10-29T06:49:46Z</time>
            </trkpt>
            <trkpt lon="100.075450" lat="15.495143">
                <ele>17.441162</ele>
                <time>2005-10-29T06:49:59Z</time>
            </trkpt>
            <trkpt lon="100.075321" lat="15.495787">
                <ele>16.960449</ele>
                <time>2005-10-29T06:50:13Z</time>
            </trkpt>
            <trkpt lon="100.075192" lat="15.496280">
                <ele>16.960449</ele>
                <time>2005-10-29T06:50:27Z</time>
            </trkpt>
            <trkpt lon="100.075150" lat="15.496387">
                <ele>16.960449</ele>
                <time>2005-10-29T06:50:30Z</time>
            </trkpt>
            <trkpt lon="100.075064" lat="15.496624">
                <ele>16.960449</ele>
                <time>2005-10-29T06:50:36Z</time>
            </trkpt>
            <trkpt lon="100.074892" lat="15.497203">
                <ele>16.960449</ele>
                <time>2005-10-29T06:50:50Z</time>
            </trkpt>
            <trkpt lon="100.075021" lat="15.497310">
                <ele>17.441162</ele>
                <time>2005-10-29T06:50:55Z</time>
            </trkpt>
            <trkpt lon="100.075536" lat="15.497353">
                <ele>18.402344</ele>
                <time>2005-10-29T06:51:08Z</time>
            </trkpt>
            <trkpt lon="100.076501" lat="15.497310">
                <ele>18.883057</ele>
                <time>2005-10-29T06:51:27Z</time>
            </trkpt>
            <trkpt lon="100.077403" lat="15.497289">
                <ele>19.363770</ele>
                <time>2005-10-29T06:51:45Z</time>
            </trkpt>
            <trkpt lon="100.077982" lat="15.497267">
                <ele>19.844360</ele>
                <time>2005-10-29T06:51:56Z</time>
            </trkpt>
            <trkpt lon="100.078282" lat="15.497396">
                <ele>20.324951</ele>
                <time>2005-10-29T06:52:03Z</time>
            </trkpt>
            <trkpt lon="100.078819" lat="15.497890">
                <ele>20.805664</ele>
                <time>2005-10-29T06:52:20Z</time>
            </trkpt>
            <trkpt lon="100.079184" lat="15.498190">
                <ele>21.286377</ele>
                <time>2005-10-29T06:52:30Z</time>
            </trkpt>
            <trkpt lon="100.079956" lat="15.498877">
                <ele>20.324951</ele>
                <time>2005-10-29T06:52:51Z</time>
            </trkpt>
            <trkpt lon="100.080643" lat="15.499499">
                <ele>21.286377</ele>
                <time>2005-10-29T06:53:09Z</time>
            </trkpt>
            <trkpt lon="100.081244" lat="15.500057">
                <ele>21.766968</ele>
                <time>2005-10-29T06:53:25Z</time>
            </trkpt>
            <trkpt lon="100.081844" lat="15.500593">
                <ele>22.247559</ele>
                <time>2005-10-29T06:53:40Z</time>
            </trkpt>
            <trkpt lon="100.082595" lat="15.501387">
                <ele>21.766968</ele>
                <time>2005-10-29T06:54:00Z</time>
            </trkpt>
            <trkpt lon="100.082746" lat="15.501516">
                <ele>21.766968</ele>
                <time>2005-10-29T06:54:04Z</time>
            </trkpt>
            <trkpt lon="100.082810" lat="15.501666">
                <ele>21.766968</ele>
                <time>2005-10-29T06:54:08Z</time>
            </trkpt>
            <trkpt lon="100.082788" lat="15.502224">
                <ele>21.766968</ele>
                <time>2005-10-29T06:54:19Z</time>
            </trkpt>
            <trkpt lon="100.082660" lat="15.503190">
                <ele>21.766968</ele>
                <time>2005-10-29T06:54:37Z</time>
            </trkpt>
            <trkpt lon="100.082853" lat="15.504005">
                <ele>21.286377</ele>
                <time>2005-10-29T06:54:53Z</time>
            </trkpt>
            <trkpt lon="100.082982" lat="15.505142">
                <ele>21.286377</ele>
                <time>2005-10-29T06:55:14Z</time>
            </trkpt>
            <trkpt lon="100.083325" lat="15.506065">
                <ele>19.844360</ele>
                <time>2005-10-29T06:55:32Z</time>
            </trkpt>
            <trkpt lon="100.083818" lat="15.506859">
                <ele>21.766968</ele>
                <time>2005-10-29T06:55:50Z</time>
            </trkpt>
            <trkpt lon="100.084248" lat="15.507460">
                <ele>20.805664</ele>
                <time>2005-10-29T06:56:06Z</time>
            </trkpt>
            <trkpt lon="100.084784" lat="15.508189">
                <ele>20.324951</ele>
                <time>2005-10-29T06:56:23Z</time>
            </trkpt>
            <trkpt lon="100.085213" lat="15.508640">
                <ele>20.324951</ele>
                <time>2005-10-29T06:56:35Z</time>
            </trkpt>
            <trkpt lon="100.085299" lat="15.508833">
                <ele>20.324951</ele>
                <time>2005-10-29T06:56:39Z</time>
            </trkpt>
            <trkpt lon="100.085471" lat="15.509670">
                <ele>20.805664</ele>
                <time>2005-10-29T06:56:57Z</time>
            </trkpt>
            <trkpt lon="100.085814" lat="15.510550">
                <ele>21.286377</ele>
                <time>2005-10-29T06:57:15Z</time>
            </trkpt>
            <trkpt lon="100.086157" lat="15.511386">
                <ele>21.766968</ele>
                <time>2005-10-29T06:57:33Z</time>
            </trkpt>
            <trkpt lon="100.086372" lat="15.512524">
                <ele>22.247559</ele>
                <time>2005-10-29T06:57:56Z</time>
            </trkpt>
            <trkpt lon="100.086393" lat="15.512953">
                <ele>23.208984</ele>
                <time>2005-10-29T06:58:04Z</time>
            </trkpt>
            <trkpt lon="100.086565" lat="15.513403">
                <ele>21.766968</ele>
                <time>2005-10-29T06:58:17Z</time>
            </trkpt>
            <trkpt lon="100.086672" lat="15.513704">
                <ele>22.728271</ele>
                <time>2005-10-29T06:58:32Z</time>
            </trkpt>
            <trkpt lon="100.086629" lat="15.513661">
                <ele>22.247559</ele>
                <time>2005-10-29T06:58:58Z</time>
            </trkpt>
            <trkpt lon="100.086565" lat="15.513618">
                <ele>22.247559</ele>
                <time>2005-10-29T06:59:17Z</time>
            </trkpt>
            <trkpt lon="100.086629" lat="15.513725">
                <ele>21.766968</ele>
                <time>2005-10-29T06:59:21Z</time>
            </trkpt>
            <trkpt lon="100.087016" lat="15.514390">
                <ele>20.805664</ele>
                <time>2005-10-29T06:59:37Z</time>
            </trkpt>
            <trkpt lon="100.087166" lat="15.515206">
                <ele>21.286377</ele>
                <time>2005-10-29T06:59:55Z</time>
            </trkpt>
            <trkpt lon="100.087209" lat="15.515721">
                <ele>20.324951</ele>
                <time>2005-10-29T07:00:05Z</time>
            </trkpt>
            <trkpt lon="100.087359" lat="15.515828">
                <ele>20.324951</ele>
                <time>2005-10-29T07:00:09Z</time>
            </trkpt>
            <trkpt lon="100.087659" lat="15.515914">
                <ele>21.286377</ele>
                <time>2005-10-29T07:00:15Z</time>
            </trkpt>
            <trkpt lon="100.087810" lat="15.516086">
                <ele>21.286377</ele>
                <time>2005-10-29T07:00:20Z</time>
            </trkpt>
            <trkpt lon="100.087960" lat="15.516837">
                <ele>21.286377</ele>
                <time>2005-10-29T07:00:38Z</time>
            </trkpt>
            <trkpt lon="100.087960" lat="15.517030">
                <ele>21.286377</ele>
                <time>2005-10-29T07:00:42Z</time>
            </trkpt>
            <trkpt lon="100.088067" lat="15.517223">
                <ele>21.766968</ele>
                <time>2005-10-29T07:00:48Z</time>
            </trkpt>
            <trkpt lon="100.088711" lat="15.517395">
                <ele>22.728271</ele>
                <time>2005-10-29T07:01:04Z</time>
            </trkpt>
            <trkpt lon="100.089505" lat="15.517609">
                <ele>23.208984</ele>
                <time>2005-10-29T07:01:23Z</time>
            </trkpt>
            <trkpt lon="100.089633" lat="15.517673">
                <ele>22.728271</ele>
                <time>2005-10-29T07:01:26Z</time>
            </trkpt>
            <trkpt lon="100.089719" lat="15.517738">
                <ele>23.208984</ele>
                <time>2005-10-29T07:01:28Z</time>
            </trkpt>
            <trkpt lon="100.089698" lat="15.518060">
                <ele>22.247559</ele>
                <time>2005-10-29T07:01:36Z</time>
            </trkpt>
            <trkpt lon="100.089612" lat="15.518103">
                <ele>21.766968</ele>
                <time>2005-10-29T07:01:38Z</time>
            </trkpt>
            <trkpt lon="100.089419" lat="15.518188">
                <ele>21.766968</ele>
                <time>2005-10-29T07:01:42Z</time>
            </trkpt>
            <trkpt lon="100.088904" lat="15.518296">
                <ele>21.766968</ele>
                <time>2005-10-29T07:01:52Z</time>
            </trkpt>
            <trkpt lon="100.088775" lat="15.518382">
                <ele>21.286377</ele>
                <time>2005-10-29T07:01:55Z</time>
            </trkpt>
            <trkpt lon="100.088689" lat="15.518425">
                <ele>21.286377</ele>
                <time>2005-10-29T07:01:57Z</time>
            </trkpt>
            <trkpt lon="100.087960" lat="15.518489">
                <ele>21.286377</ele>
                <time>2005-10-29T07:02:11Z</time>
            </trkpt>
            <trkpt lon="100.087209" lat="15.518682">
                <ele>21.766968</ele>
                <time>2005-10-29T07:02:26Z</time>
            </trkpt>
            <trkpt lon="100.086501" lat="15.518768">
                <ele>20.805664</ele>
                <time>2005-10-29T07:02:42Z</time>
            </trkpt>
            <trkpt lon="100.085728" lat="15.518596">
                <ele>20.324951</ele>
                <time>2005-10-29T07:02:58Z</time>
            </trkpt>
            <trkpt lon="100.085492" lat="15.518510">
                <ele>19.844360</ele>
                <time>2005-10-29T07:03:03Z</time>
            </trkpt>
            <trkpt lon="100.085342" lat="15.518510">
                <ele>19.844360</ele>
                <time>2005-10-29T07:03:06Z</time>
            </trkpt>
            <trkpt lon="100.085256" lat="15.518510">
                <ele>19.844360</ele>
                <time>2005-10-29T07:03:08Z</time>
            </trkpt>
            <trkpt lon="100.085020" lat="15.518618">
                <ele>19.363770</ele>
                <time>2005-10-29T07:03:14Z</time>
            </trkpt>
            <trkpt lon="100.084763" lat="15.518811">
                <ele>18.402344</ele>
                <time>2005-10-29T07:03:21Z</time>
            </trkpt>
            <trkpt lon="100.084591" lat="15.518854">
                <ele>18.402344</ele>
                <time>2005-10-29T07:03:25Z</time>
            </trkpt>
            <trkpt lon="100.084140" lat="15.518961">
                <ele>18.402344</ele>
                <time>2005-10-29T07:03:35Z</time>
            </trkpt>
            <trkpt lon="100.083368" lat="15.518875">
                <ele>18.402344</ele>
                <time>2005-10-29T07:03:50Z</time>
            </trkpt>
            <trkpt lon="100.082874" lat="15.518703">
                <ele>19.363770</ele>
                <time>2005-10-29T07:04:00Z</time>
            </trkpt>
            <trkpt lon="100.081887" lat="15.518618">
                <ele>19.363770</ele>
                <time>2005-10-29T07:04:20Z</time>
            </trkpt>
            <trkpt lon="100.080922" lat="15.518339">
                <ele>18.883057</ele>
                <time>2005-10-29T07:04:40Z</time>
            </trkpt>
            <trkpt lon="100.080106" lat="15.518017">
                <ele>18.883057</ele>
                <time>2005-10-29T07:04:57Z</time>
            </trkpt>
            <trkpt lon="100.079162" lat="15.517652">
                <ele>19.844360</ele>
                <time>2005-10-29T07:05:16Z</time>
            </trkpt>
            <trkpt lon="100.078819" lat="15.517502">
                <ele>19.363770</ele>
                <time>2005-10-29T07:05:23Z</time>
            </trkpt>
            <trkpt lon="100.078690" lat="15.517352">
                <ele>19.363770</ele>
                <time>2005-10-29T07:05:27Z</time>
            </trkpt>
            <trkpt lon="100.078433" lat="15.517159">
                <ele>20.324951</ele>
                <time>2005-10-29T07:05:33Z</time>
            </trkpt>
            <trkpt lon="100.077531" lat="15.517116">
                <ele>19.363770</ele>
                <time>2005-10-29T07:05:50Z</time>
            </trkpt>
            <trkpt lon="100.076587" lat="15.517116">
                <ele>18.883057</ele>
                <time>2005-10-29T07:06:09Z</time>
            </trkpt>
            <trkpt lon="100.076072" lat="15.517180">
                <ele>19.363770</ele>
                <time>2005-10-29T07:06:23Z</time>
            </trkpt>
            <trkpt lon="100.075321" lat="15.517223">
                <ele>19.844360</ele>
                <time>2005-10-29T07:06:40Z</time>
            </trkpt>
            <trkpt lon="100.074484" lat="15.517159">
                <ele>19.363770</ele>
                <time>2005-10-29T07:06:58Z</time>
            </trkpt>
            <trkpt lon="100.073519" lat="15.517116">
                <ele>18.883057</ele>
                <time>2005-10-29T07:07:17Z</time>
            </trkpt>
            <trkpt lon="100.072682" lat="15.517116">
                <ele>18.402344</ele>
                <time>2005-10-29T07:07:33Z</time>
            </trkpt>
            <trkpt lon="100.071738" lat="15.517180">
                <ele>18.883057</ele>
                <time>2005-10-29T07:07:52Z</time>
            </trkpt>
            <trkpt lon="100.070879" lat="15.517309">
                <ele>18.883057</ele>
                <time>2005-10-29T07:08:09Z</time>
            </trkpt>
            <trkpt lon="100.070171" lat="15.517459">
                <ele>18.402344</ele>
                <time>2005-10-29T07:08:24Z</time>
            </trkpt>
            <trkpt lon="100.069270" lat="15.517673">
                <ele>17.441162</ele>
                <time>2005-10-29T07:08:40Z</time>
            </trkpt>
            <trkpt lon="100.069227" lat="15.517695">
                <ele>17.441162</ele>
                <time>2005-10-29T07:08:41Z</time>
            </trkpt>
            <trkpt lon="100.068712" lat="15.518081">
                <ele>16.960449</ele>
                <time>2005-10-29T07:08:56Z</time>
            </trkpt>
            <trkpt lon="100.068605" lat="15.518146">
                <ele>16.960449</ele>
                <time>2005-10-29T07:08:59Z</time>
            </trkpt>
            <trkpt lon="100.068541" lat="15.518210">
                <ele>16.960449</ele>
                <time>2005-10-29T07:09:01Z</time>
            </trkpt>
            <trkpt lon="100.067875" lat="15.518403">
                <ele>16.960449</ele>
                <time>2005-10-29T07:09:15Z</time>
            </trkpt>
            <trkpt lon="100.067425" lat="15.518553">
                <ele>17.441162</ele>
                <time>2005-10-29T07:09:26Z</time>
            </trkpt>
            <trkpt lon="100.067403" lat="15.518596">
                <ele>16.479736</ele>
                <time>2005-10-29T07:09:30Z</time>
            </trkpt>
            <trkpt lon="100.067532" lat="15.519111">
                <ele>16.960449</ele>
                <time>2005-10-29T07:09:47Z</time>
            </trkpt>
            <trkpt lon="100.067725" lat="15.519776">
                <ele>20.324951</ele>
                <time>2005-10-29T07:10:04Z</time>
            </trkpt>
            <trkpt lon="100.067983" lat="15.520356">
                <ele>20.324951</ele>
                <time>2005-10-29T07:10:20Z</time>
            </trkpt>
            <trkpt lon="100.068262" lat="15.520613">
                <ele>19.844360</ele>
                <time>2005-10-29T07:10:31Z</time>
            </trkpt>
            <trkpt lon="100.068734" lat="15.521257">
                <ele>18.883057</ele>
                <time>2005-10-29T07:10:51Z</time>
            </trkpt>
            <trkpt lon="100.068841" lat="15.521257">
                <ele>18.883057</ele>
                <time>2005-10-29T07:10:55Z</time>
            </trkpt>
            <trkpt lon="100.068970" lat="15.521235">
                <ele>18.883057</ele>
                <time>2005-10-29T07:10:59Z</time>
            </trkpt>
            <trkpt lon="100.069206" lat="15.521836">
                <ele>18.402344</ele>
                <time>2005-10-29T07:11:15Z</time>
            </trkpt>
            <trkpt lon="100.069356" lat="15.522180">
                <ele>18.402344</ele>
                <time>2005-10-29T07:11:24Z</time>
            </trkpt>
            <trkpt lon="100.069313" lat="15.522223">
                <ele>18.402344</ele>
                <time>2005-10-29T07:11:28Z</time>
            </trkpt>
            <trkpt lon="100.068648" lat="15.522308">
                <ele>18.402344</ele>
                <time>2005-10-29T07:11:45Z</time>
            </trkpt>
            <trkpt lon="100.068412" lat="15.522373">
                <ele>18.402344</ele>
                <time>2005-10-29T07:11:50Z</time>
            </trkpt>
            <trkpt lon="100.067983" lat="15.522459">
                <ele>18.883057</ele>
                <time>2005-10-29T07:11:59Z</time>
            </trkpt>
            <trkpt lon="100.067489" lat="15.522630">
                <ele>18.883057</ele>
                <time>2005-10-29T07:12:12Z</time>
            </trkpt>
            <trkpt lon="100.067489" lat="15.522759">
                <ele>17.441162</ele>
                <time>2005-10-29T07:12:20Z</time>
            </trkpt>
            <trkpt lon="100.067489" lat="15.522738">
                <ele>19.363770</ele>
                <time>2005-10-29T07:13:12Z</time>
            </trkpt>
            <trkpt lon="100.067489" lat="15.522716">
                <ele>19.363770</ele>
                <time>2005-10-29T07:13:15Z</time>
            </trkpt>
            <trkpt lon="100.067446" lat="15.522652">
                <ele>19.844360</ele>
                <time>2005-10-29T07:13:19Z</time>
            </trkpt>
            <trkpt lon="100.067124" lat="15.522459">
                <ele>20.324951</ele>
                <time>2005-10-29T07:13:33Z</time>
            </trkpt>
            <trkpt lon="100.066845" lat="15.522244">
                <ele>20.324951</ele>
                <time>2005-10-29T07:13:49Z</time>
            </trkpt>
            <trkpt lon="100.066760" lat="15.522201">
                <ele>21.286377</ele>
                <time>2005-10-29T07:14:33Z</time>
            </trkpt>
            <trkpt lon="100.066674" lat="15.522158">
                <ele>21.766968</ele>
                <time>2005-10-29T07:14:46Z</time>
            </trkpt>
            <trkpt lon="100.066652" lat="15.522158">
                <ele>20.805664</ele>
                <time>2005-10-29T07:15:05Z</time>
            </trkpt>
            <trkpt lon="100.066631" lat="15.522115">
                <ele>21.286377</ele>
                <time>2005-10-29T07:15:18Z</time>
            </trkpt>
            <trkpt lon="100.066545" lat="15.522029">
                <ele>21.766968</ele>
                <time>2005-10-29T07:15:32Z</time>
            </trkpt>
            <trkpt lon="100.066545" lat="15.522029">
                <ele>22.247559</ele>
                <time>2005-10-29T07:15:50Z</time>
            </trkpt>
            <trkpt lon="100.066502" lat="15.521986">
                <ele>22.247559</ele>
                <time>2005-10-29T07:16:06Z</time>
            </trkpt>
            <trkpt lon="100.066524" lat="15.522029">
                <ele>20.805664</ele>
                <time>2005-10-29T07:16:23Z</time>
            </trkpt>
            <trkpt lon="100.066545" lat="15.522051">
                <ele>19.844360</ele>
                <time>2005-10-29T07:16:39Z</time>
            </trkpt>
            <trkpt lon="100.066545" lat="15.522051">
                <ele>18.402344</ele>
                <time>2005-10-29T07:17:11Z</time>
            </trkpt>
            <trkpt lon="100.066524" lat="15.522072">
                <ele>19.844360</ele>
                <time>2005-10-29T07:17:24Z</time>
            </trkpt>
            <trkpt lon="100.066330" lat="15.522201">
                <ele>20.324951</ele>
                <time>2005-10-29T07:17:31Z</time>
            </trkpt>
            <trkpt lon="100.066094" lat="15.522158">
                <ele>19.363770</ele>
                <time>2005-10-29T07:17:37Z</time>
            </trkpt>
            <trkpt lon="100.065773" lat="15.521793">
                <ele>18.883057</ele>
                <time>2005-10-29T07:17:50Z</time>
            </trkpt>
            <trkpt lon="100.065536" lat="15.521407">
                <ele>18.883057</ele>
                <time>2005-10-29T07:18:02Z</time>
            </trkpt>
            <trkpt lon="100.065408" lat="15.521064">
                <ele>18.883057</ele>
                <time>2005-10-29T07:18:15Z</time>
            </trkpt>
            <trkpt lon="100.065236" lat="15.520549">
                <ele>17.441162</ele>
                <time>2005-10-29T07:18:28Z</time>
            </trkpt>
            <trkpt lon="100.065215" lat="15.520399">
                <ele>17.921753</ele>
                <time>2005-10-29T07:18:37Z</time>
            </trkpt>
            <trkpt lon="100.065193" lat="15.520420">
                <ele>9.269897</ele>
                <time>2005-10-29T07:19:18Z</time>
            </trkpt>
            <trkpt lon="100.065193" lat="15.520356">
                <ele>11.192505</ele>
                <time>2005-10-29T07:19:24Z</time>
            </trkpt>
            <trkpt lon="100.065172" lat="15.520270">
                <ele>12.153809</ele>
                <time>2005-10-29T07:19:30Z</time>
            </trkpt>
            <trkpt lon="100.064957" lat="15.519712">
                <ele>14.076416</ele>
                <time>2005-10-29T07:19:47Z</time>
            </trkpt>
            <trkpt lon="100.064743" lat="15.519540">
                <ele>15.518433</ele>
                <time>2005-10-29T07:19:58Z</time>
            </trkpt>
            <trkpt lon="100.064635" lat="15.519562">
                <ele>15.518433</ele>
                <time>2005-10-29T07:20:08Z</time>
            </trkpt>
            <trkpt lon="100.064163" lat="15.519626">
                <ele>15.999023</ele>
                <time>2005-10-29T07:20:22Z</time>
            </trkpt>
            <trkpt lon="100.063605" lat="15.519669">
                <ele>16.960449</ele>
                <time>2005-10-29T07:20:35Z</time>
            </trkpt>
            <trkpt lon="100.062768" lat="15.519755">
                <ele>17.921753</ele>
                <time>2005-10-29T07:20:55Z</time>
            </trkpt>
            <trkpt lon="100.062232" lat="15.519755">
                <ele>18.402344</ele>
                <time>2005-10-29T07:21:10Z</time>
            </trkpt>
            <trkpt lon="100.061846" lat="15.519497">
                <ele>18.883057</ele>
                <time>2005-10-29T07:21:23Z</time>
            </trkpt>
            <trkpt lon="100.061631" lat="15.519197">
                <ele>19.844360</ele>
                <time>2005-10-29T07:21:37Z</time>
            </trkpt>
            <trkpt lon="100.061631" lat="15.519197">
                <ele>17.921753</ele>
                <time>2005-10-29T07:21:59Z</time>
            </trkpt>
            <trkpt lon="100.061567" lat="15.519111">
                <ele>16.479736</ele>
                <time>2005-10-29T07:22:38Z</time>
            </trkpt>
            <trkpt lon="100.061352" lat="15.518703">
                <ele>15.999023</ele>
                <time>2005-10-29T07:22:51Z</time>
            </trkpt>
            <trkpt lon="100.061288" lat="15.518596">
                <ele>16.960449</ele>
                <time>2005-10-29T07:22:54Z</time>
            </trkpt>
            <trkpt lon="100.061138" lat="15.518532">
                <ele>17.921753</ele>
                <time>2005-10-29T07:22:58Z</time>
            </trkpt>
            <trkpt lon="100.060880" lat="15.518639">
                <ele>17.441162</ele>
                <time>2005-10-29T07:23:04Z</time>
            </trkpt>
            <trkpt lon="100.060472" lat="15.518982">
                <ele>17.921753</ele>
                <time>2005-10-29T07:23:14Z</time>
            </trkpt>
            <trkpt lon="100.060215" lat="15.519068">
                <ele>17.441162</ele>
                <time>2005-10-29T07:23:19Z</time>
            </trkpt>
            <trkpt lon="100.059807" lat="15.519176">
                <ele>17.921753</ele>
                <time>2005-10-29T07:23:26Z</time>
            </trkpt>
            <trkpt lon="100.059443" lat="15.519326">
                <ele>18.402344</ele>
                <time>2005-10-29T07:23:33Z</time>
            </trkpt>
            <trkpt lon="100.059228" lat="15.519347">
                <ele>18.402344</ele>
                <time>2005-10-29T07:23:37Z</time>
            </trkpt>
            <trkpt lon="100.058413" lat="15.519304">
                <ele>19.844360</ele>
                <time>2005-10-29T07:23:52Z</time>
            </trkpt>
            <trkpt lon="100.058134" lat="15.519197">
                <ele>20.324951</ele>
                <time>2005-10-29T07:23:58Z</time>
            </trkpt>
            <trkpt lon="100.057361" lat="15.519154">
                <ele>20.805664</ele>
                <time>2005-10-29T07:24:13Z</time>
            </trkpt>
            <trkpt lon="100.056546" lat="15.519283">
                <ele>17.921753</ele>
                <time>2005-10-29T07:24:29Z</time>
            </trkpt>
            <trkpt lon="100.055838" lat="15.519433">
                <ele>19.844360</ele>
                <time>2005-10-29T07:24:43Z</time>
            </trkpt>
            <trkpt lon="100.055687" lat="15.519454">
                <ele>20.324951</ele>
                <time>2005-10-29T07:24:46Z</time>
            </trkpt>
            <trkpt lon="100.055473" lat="15.519369">
                <ele>19.844360</ele>
                <time>2005-10-29T07:24:51Z</time>
            </trkpt>
            <trkpt lon="100.054679" lat="15.519004">
                <ele>20.805664</ele>
                <time>2005-10-29T07:25:07Z</time>
            </trkpt>
            <trkpt lon="100.053756" lat="15.518553">
                <ele>21.286377</ele>
                <time>2005-10-29T07:25:27Z</time>
            </trkpt>
            <trkpt lon="100.053134" lat="15.518317">
                <ele>21.286377</ele>
                <time>2005-10-29T07:25:40Z</time>
            </trkpt>
            <trkpt lon="100.052834" lat="15.518360">
                <ele>20.805664</ele>
                <time>2005-10-29T07:25:46Z</time>
            </trkpt>
            <trkpt lon="100.052061" lat="15.518811">
                <ele>19.363770</ele>
                <time>2005-10-29T07:26:05Z</time>
            </trkpt>
            <trkpt lon="100.051525" lat="15.518918">
                <ele>17.921753</ele>
                <time>2005-10-29T07:26:20Z</time>
            </trkpt>
            <trkpt lon="100.051374" lat="15.518918">
                <ele>20.324951</ele>
                <time>2005-10-29T07:26:33Z</time>
            </trkpt>
            <trkpt lon="100.051332" lat="15.518918">
                <ele>19.844360</ele>
                <time>2005-10-29T07:26:54Z</time>
            </trkpt>
            <trkpt lon="100.051310" lat="15.518918">
                <ele>19.844360</ele>
                <time>2005-10-29T07:27:21Z</time>
            </trkpt>
            <trkpt lon="100.051289" lat="15.518918">
                <ele>20.805664</ele>
                <time>2005-10-29T07:27:42Z</time>
            </trkpt>
            <trkpt lon="100.050881" lat="15.518982">
                <ele>20.324951</ele>
                <time>2005-10-29T07:27:54Z</time>
            </trkpt>
            <trkpt lon="100.050087" lat="15.519068">
                <ele>20.324951</ele>
                <time>2005-10-29T07:28:10Z</time>
            </trkpt>
            <trkpt lon="100.048950" lat="15.519240">
                <ele>19.844360</ele>
                <time>2005-10-29T07:28:31Z</time>
            </trkpt>
            <trkpt lon="100.048735" lat="15.519111">
                <ele>20.324951</ele>
                <time>2005-10-29T07:28:36Z</time>
            </trkpt>
            <trkpt lon="100.048542" lat="15.518854">
                <ele>20.805664</ele>
                <time>2005-10-29T07:28:42Z</time>
            </trkpt>
            <trkpt lon="100.048349" lat="15.518789">
                <ele>20.805664</ele>
                <time>2005-10-29T07:28:46Z</time>
            </trkpt>
            <trkpt lon="100.047491" lat="15.518768">
                <ele>20.805664</ele>
                <time>2005-10-29T07:29:02Z</time>
            </trkpt>
            <trkpt lon="100.046997" lat="15.518875">
                <ele>20.324951</ele>
                <time>2005-10-29T07:29:15Z</time>
            </trkpt>
            <trkpt lon="100.046740" lat="15.518939">
                <ele>19.844360</ele>
                <time>2005-10-29T07:29:33Z</time>
            </trkpt>
            <trkpt lon="100.046697" lat="15.518961">
                <ele>19.844360</ele>
                <time>2005-10-29T07:29:49Z</time>
            </trkpt>
            <trkpt lon="100.046461" lat="15.519047">
                <ele>20.324951</ele>
                <time>2005-10-29T07:30:03Z</time>
            </trkpt>
            <trkpt lon="100.046203" lat="15.519090">
                <ele>20.324951</ele>
                <time>2005-10-29T07:30:16Z</time>
            </trkpt>
            <trkpt lon="100.045710" lat="15.519111">
                <ele>19.844360</ele>
                <time>2005-10-29T07:30:32Z</time>
            </trkpt>
            <trkpt lon="100.045002" lat="15.519111">
                <ele>19.844360</ele>
                <time>2005-10-29T07:30:49Z</time>
            </trkpt>
            <trkpt lon="100.044873" lat="15.519133">
                <ele>19.363770</ele>
                <time>2005-10-29T07:30:52Z</time>
            </trkpt>
            <trkpt lon="100.044208" lat="15.519261">
                <ele>19.363770</ele>
                <time>2005-10-29T07:31:08Z</time>
            </trkpt>
            <trkpt lon="100.043929" lat="15.519326">
                <ele>18.883057</ele>
                <time>2005-10-29T07:31:14Z</time>
            </trkpt>
            <trkpt lon="100.043221" lat="15.519347">
                <ele>19.363770</ele>
                <time>2005-10-29T07:31:27Z</time>
            </trkpt>
            <trkpt lon="100.042641" lat="15.519304">
                <ele>19.844360</ele>
                <time>2005-10-29T07:31:39Z</time>
            </trkpt>
            <trkpt lon="100.042427" lat="15.519283">
                <ele>19.363770</ele>
                <time>2005-10-29T07:31:44Z</time>
            </trkpt>
            <trkpt lon="100.042169" lat="15.519240">
                <ele>19.844360</ele>
                <time>2005-10-29T07:31:54Z</time>
            </trkpt>
            <trkpt lon="100.041804" lat="15.519197">
                <ele>19.844360</ele>
                <time>2005-10-29T07:32:09Z</time>
            </trkpt>
            <trkpt lon="100.041332" lat="15.519068">
                <ele>20.324951</ele>
                <time>2005-10-29T07:32:22Z</time>
            </trkpt>
            <trkpt lon="100.040710" lat="15.518682">
                <ele>20.805664</ele>
                <time>2005-10-29T07:32:38Z</time>
            </trkpt>
            <trkpt lon="100.040152" lat="15.518317">
                <ele>21.286377</ele>
                <time>2005-10-29T07:32:52Z</time>
            </trkpt>
            <trkpt lon="100.040002" lat="15.518296">
                <ele>21.286377</ele>
                <time>2005-10-29T07:32:55Z</time>
            </trkpt>
            <trkpt lon="100.039916" lat="15.518317">
                <ele>21.286377</ele>
                <time>2005-10-29T07:32:57Z</time>
            </trkpt>
            <trkpt lon="100.039637" lat="15.518360">
                <ele>21.286377</ele>
                <time>2005-10-29T07:33:03Z</time>
            </trkpt>
            <trkpt lon="100.038693" lat="15.518575">
                <ele>20.324951</ele>
                <time>2005-10-29T07:33:24Z</time>
            </trkpt>
            <trkpt lon="100.038521" lat="15.518596">
                <ele>20.805664</ele>
                <time>2005-10-29T07:33:28Z</time>
            </trkpt>
            <trkpt lon="100.037534" lat="15.518425">
                <ele>22.728271</ele>
                <time>2005-10-29T07:33:48Z</time>
            </trkpt>
            <trkpt lon="100.037105" lat="15.518210">
                <ele>22.728271</ele>
                <time>2005-10-29T07:33:57Z</time>
            </trkpt>
            <trkpt lon="100.036998" lat="15.518167">
                <ele>22.728271</ele>
                <time>2005-10-29T07:33:59Z</time>
            </trkpt>
            <trkpt lon="100.036461" lat="15.518167">
                <ele>22.247559</ele>
                <time>2005-10-29T07:34:09Z</time>
            </trkpt>
            <trkpt lon="100.036139" lat="15.517824">
                <ele>22.247559</ele>
                <time>2005-10-29T07:34:20Z</time>
            </trkpt>
            <trkpt lon="100.036118" lat="15.517759">
                <ele>22.247559</ele>
                <time>2005-10-29T07:34:23Z</time>
            </trkpt>
            <trkpt lon="100.036075" lat="15.517759">
                <ele>22.728271</ele>
                <time>2005-10-29T07:34:29Z</time>
            </trkpt>
            <trkpt lon="100.036118" lat="15.517781">
                <ele>21.286377</ele>
                <time>2005-10-29T07:34:44Z</time>
            </trkpt>
            <trkpt lon="100.036161" lat="15.517716">
                <ele>24.651001</ele>
                <time>2005-10-29T07:48:45Z</time>
            </trkpt>
            <trkpt lon="100.036161" lat="15.517759">
                <ele>14.076416</ele>
                <time>2005-10-29T08:00:45Z</time>
            </trkpt>
            <trkpt lon="100.036161" lat="15.517738">
                <ele>15.037720</ele>
                <time>2005-10-29T08:00:49Z</time>
            </trkpt>
            <trkpt lon="100.036204" lat="15.517695">
                <ele>15.999023</ele>
                <time>2005-10-29T08:00:53Z</time>
            </trkpt>
            <trkpt lon="100.036139" lat="15.517395">
                <ele>17.441162</ele>
                <time>2005-10-29T08:01:06Z</time>
            </trkpt>
            <trkpt lon="100.036333" lat="15.517287">
                <ele>17.441162</ele>
                <time>2005-10-29T08:01:15Z</time>
            </trkpt>
            <trkpt lon="100.036333" lat="15.517223">
                <ele>17.441162</ele>
                <time>2005-10-29T08:01:19Z</time>
            </trkpt>
            <trkpt lon="100.036247" lat="15.516858">
                <ele>18.883057</ele>
                <time>2005-10-29T08:01:33Z</time>
            </trkpt>
            <trkpt lon="100.036268" lat="15.516386">
                <ele>19.363770</ele>
                <time>2005-10-29T08:01:47Z</time>
            </trkpt>
            <trkpt lon="100.036333" lat="15.516171">
                <ele>19.363770</ele>
                <time>2005-10-29T08:01:59Z</time>
            </trkpt>
            <trkpt lon="100.036333" lat="15.516150">
                <ele>19.844360</ele>
                <time>2005-10-29T08:02:20Z</time>
            </trkpt>
            <trkpt lon="100.036397" lat="15.516043">
                <ele>19.844360</ele>
                <time>2005-10-29T08:02:27Z</time>
            </trkpt>
            <trkpt lon="100.036461" lat="15.515957">
                <ele>20.324951</ele>
                <time>2005-10-29T08:02:34Z</time>
            </trkpt>
            <trkpt lon="100.036418" lat="15.515850">
                <ele>19.844360</ele>
                <time>2005-10-29T08:02:47Z</time>
            </trkpt>
            <trkpt lon="100.036418" lat="15.515764">
                <ele>18.402344</ele>
                <time>2005-10-29T08:02:58Z</time>
            </trkpt>
            <trkpt lon="100.036418" lat="15.515678">
                <ele>19.363770</ele>
                <time>2005-10-29T08:03:09Z</time>
            </trkpt>
            <trkpt lon="100.036397" lat="15.515614">
                <ele>21.286377</ele>
                <time>2005-10-29T08:04:37Z</time>
            </trkpt>
            <trkpt lon="100.036354" lat="15.515592">
                <ele>20.324951</ele>
                <time>2005-10-29T08:04:53Z</time>
            </trkpt>
            <trkpt lon="100.036268" lat="15.515571">
                <ele>17.921753</ele>
                <time>2005-10-29T08:05:42Z</time>
            </trkpt>
            <trkpt lon="100.036118" lat="15.515528">
                <ele>18.402344</ele>
                <time>2005-10-29T08:05:59Z</time>
            </trkpt>
            <trkpt lon="100.036118" lat="15.515506">
                <ele>18.402344</ele>
                <time>2005-10-29T08:06:01Z</time>
            </trkpt>
            <trkpt lon="100.036118" lat="15.515313">
                <ele>18.883057</ele>
                <time>2005-10-29T08:06:22Z</time>
            </trkpt>
            <trkpt lon="100.036139" lat="15.515141">
                <ele>19.363770</ele>
                <time>2005-10-29T08:06:42Z</time>
            </trkpt>
            <trkpt lon="100.036161" lat="15.515056">
                <ele>19.363770</ele>
                <time>2005-10-29T08:06:54Z</time>
            </trkpt>
            <trkpt lon="100.036139" lat="15.514991">
                <ele>19.844360</ele>
                <time>2005-10-29T08:07:07Z</time>
            </trkpt>
            <trkpt lon="100.036118" lat="15.514905">
                <ele>20.324951</ele>
                <time>2005-10-29T08:07:20Z</time>
            </trkpt>
            <trkpt lon="100.036118" lat="15.514798">
                <ele>20.324951</ele>
                <time>2005-10-29T08:07:31Z</time>
            </trkpt>
            <trkpt lon="100.036118" lat="15.514798">
                <ele>19.844360</ele>
                <time>2005-10-29T08:07:50Z</time>
            </trkpt>
            <trkpt lon="100.036118" lat="15.514605">
                <ele>20.324951</ele>
                <time>2005-10-29T08:08:21Z</time>
            </trkpt>
            <trkpt lon="100.036118" lat="15.514498">
                <ele>19.844360</ele>
                <time>2005-10-29T08:08:33Z</time>
            </trkpt>
            <trkpt lon="100.036118" lat="15.514498">
                <ele>19.844360</ele>
                <time>2005-10-29T08:08:34Z</time>
            </trkpt>
            <trkpt lon="100.035903" lat="15.514455">
                <ele>19.363770</ele>
                <time>2005-10-29T08:08:52Z</time>
            </trkpt>
            <trkpt lon="100.035710" lat="15.514412">
                <ele>18.883057</ele>
                <time>2005-10-29T08:09:06Z</time>
            </trkpt>
            <trkpt lon="100.035367" lat="15.514348">
                <ele>18.883057</ele>
                <time>2005-10-29T08:09:23Z</time>
            </trkpt>
            <trkpt lon="100.035174" lat="15.514305">
                <ele>19.363770</ele>
                <time>2005-10-29T08:09:34Z</time>
            </trkpt>
            <trkpt lon="100.034680" lat="15.514262">
                <ele>19.844360</ele>
                <time>2005-10-29T08:09:50Z</time>
            </trkpt>
            <trkpt lon="100.034423" lat="15.513983">
                <ele>19.363770</ele>
                <time>2005-10-29T08:10:02Z</time>
            </trkpt>
            <trkpt lon="100.034380" lat="15.513897">
                <ele>19.363770</ele>
                <time>2005-10-29T08:10:11Z</time>
            </trkpt>
            <trkpt lon="100.034380" lat="15.513897">
                <ele>19.363770</ele>
                <time>2005-10-29T08:10:16Z</time>
            </trkpt>
            <trkpt lon="100.034380" lat="15.513918">
                <ele>19.363770</ele>
                <time>2005-10-29T08:10:18Z</time>
            </trkpt>
            <trkpt lon="100.034337" lat="15.513918">
                <ele>19.363770</ele>
                <time>2005-10-29T08:10:29Z</time>
            </trkpt>
            <trkpt lon="100.034380" lat="15.513897">
                <ele>19.363770</ele>
                <time>2005-10-29T08:11:04Z</time>
            </trkpt>
            <trkpt lon="100.034273" lat="15.513618">
                <ele>19.363770</ele>
                <time>2005-10-29T08:11:17Z</time>
            </trkpt>
            <trkpt lon="100.034144" lat="15.513296">
                <ele>19.363770</ele>
                <time>2005-10-29T08:11:31Z</time>
            </trkpt>
            <trkpt lon="100.034144" lat="15.513275">
                <ele>20.324951</ele>
                <time>2005-10-29T08:11:45Z</time>
            </trkpt>
            <trkpt lon="100.034080" lat="15.513124">
                <ele>20.805664</ele>
                <time>2005-10-29T08:12:05Z</time>
            </trkpt>
            <trkpt lon="100.034101" lat="15.513082">
                <ele>20.805664</ele>
                <time>2005-10-29T08:12:18Z</time>
            </trkpt>
            <trkpt lon="100.034037" lat="15.513039">
                <ele>20.805664</ele>
                <time>2005-10-29T08:12:34Z</time>
            </trkpt>
            <trkpt lon="100.034015" lat="15.512996">
                <ele>20.324951</ele>
                <time>2005-10-29T08:12:42Z</time>
            </trkpt>
            <trkpt lon="100.033972" lat="15.512910">
                <ele>20.324951</ele>
                <time>2005-10-29T08:12:46Z</time>
            </trkpt>
            <trkpt lon="100.033865" lat="15.512695">
                <ele>20.324951</ele>
                <time>2005-10-29T08:12:59Z</time>
            </trkpt>
            <trkpt lon="100.033779" lat="15.512567">
                <ele>20.805664</ele>
                <time>2005-10-29T08:13:13Z</time>
            </trkpt>
            <trkpt lon="100.033650" lat="15.512245">
                <ele>21.766968</ele>
                <time>2005-10-29T08:13:25Z</time>
            </trkpt>
            <trkpt lon="100.033565" lat="15.511880">
                <ele>20.324951</ele>
                <time>2005-10-29T08:13:35Z</time>
            </trkpt>
            <trkpt lon="100.033393" lat="15.511279">
                <ele>19.844360</ele>
                <time>2005-10-29T08:13:51Z</time>
            </trkpt>
            <trkpt lon="100.033350" lat="15.511258">
                <ele>19.844360</ele>
                <time>2005-10-29T08:13:55Z</time>
            </trkpt>
            <trkpt lon="100.033243" lat="15.511193">
                <ele>20.324951</ele>
                <time>2005-10-29T08:14:03Z</time>
            </trkpt>
            <trkpt lon="100.032706" lat="15.511279">
                <ele>20.324951</ele>
                <time>2005-10-29T08:14:19Z</time>
            </trkpt>
            <trkpt lon="100.032127" lat="15.511301">
                <ele>19.844360</ele>
                <time>2005-10-29T08:14:35Z</time>
            </trkpt>
            <trkpt lon="100.031633" lat="15.511343">
                <ele>19.844360</ele>
                <time>2005-10-29T08:14:50Z</time>
            </trkpt>
            <trkpt lon="100.031033" lat="15.511386">
                <ele>19.844360</ele>
                <time>2005-10-29T08:15:07Z</time>
            </trkpt>
            <trkpt lon="100.030560" lat="15.511451">
                <ele>20.324951</ele>
                <time>2005-10-29T08:15:26Z</time>
            </trkpt>
            <trkpt lon="100.030432" lat="15.511451">
                <ele>19.363770</ele>
                <time>2005-10-29T08:15:41Z</time>
            </trkpt>
            <trkpt lon="100.030389" lat="15.511451">
                <ele>19.363770</ele>
                <time>2005-10-29T08:15:51Z</time>
            </trkpt>
            <trkpt lon="100.030260" lat="15.511494">
                <ele>20.324951</ele>
                <time>2005-10-29T08:16:03Z</time>
            </trkpt>
            <trkpt lon="100.030196" lat="15.511515">
                <ele>20.324951</ele>
                <time>2005-10-29T08:16:08Z</time>
            </trkpt>
            <trkpt lon="100.030217" lat="15.511558">
                <ele>20.324951</ele>
                <time>2005-10-29T08:16:11Z</time>
            </trkpt>
            <trkpt lon="100.029917" lat="15.511622">
                <ele>20.324951</ele>
                <time>2005-10-29T08:16:23Z</time>
            </trkpt>
            <trkpt lon="100.029788" lat="15.511665">
                <ele>20.324951</ele>
                <time>2005-10-29T08:16:27Z</time>
            </trkpt>
            <trkpt lon="100.029767" lat="15.511773">
                <ele>20.324951</ele>
                <time>2005-10-29T08:16:32Z</time>
            </trkpt>
            <trkpt lon="100.029960" lat="15.512245">
                <ele>19.844360</ele>
                <time>2005-10-29T08:16:51Z</time>
            </trkpt>
            <trkpt lon="100.030131" lat="15.512738">
                <ele>19.844360</ele>
                <time>2005-10-29T08:17:10Z</time>
            </trkpt>
            <trkpt lon="100.030088" lat="15.512803">
                <ele>19.844360</ele>
                <time>2005-10-29T08:17:14Z</time>
            </trkpt>
            <trkpt lon="100.029745" lat="15.512846">
                <ele>22.247559</ele>
                <time>2005-10-29T08:17:27Z</time>
            </trkpt>
            <trkpt lon="100.029573" lat="15.512352">
                <ele>21.286377</ele>
                <time>2005-10-29T08:17:44Z</time>
            </trkpt>
            <trkpt lon="100.029230" lat="15.511515">
                <ele>21.766968</ele>
                <time>2005-10-29T08:18:04Z</time>
            </trkpt>
            <trkpt lon="100.028865" lat="15.510635">
                <ele>21.286377</ele>
                <time>2005-10-29T08:18:24Z</time>
            </trkpt>
            <trkpt lon="100.028393" lat="15.509477">
                <ele>20.805664</ele>
                <time>2005-10-29T08:18:48Z</time>
            </trkpt>
            <trkpt lon="100.027986" lat="15.508490">
                <ele>20.324951</ele>
                <time>2005-10-29T08:19:09Z</time>
            </trkpt>
            <trkpt lon="100.027428" lat="15.507095">
                <ele>20.805664</ele>
                <time>2005-10-29T08:19:40Z</time>
            </trkpt>
            <trkpt lon="100.026999" lat="15.506086">
                <ele>21.766968</ele>
                <time>2005-10-29T08:20:04Z</time>
            </trkpt>
            <trkpt lon="100.027020" lat="15.505872">
                <ele>20.805664</ele>
                <time>2005-10-29T08:20:15Z</time>
            </trkpt>
            <trkpt lon="100.027041" lat="15.505850">
                <ele>21.286377</ele>
                <time>2005-10-29T08:20:33Z</time>
            </trkpt>
            <trkpt lon="100.027041" lat="15.505850">
                <ele>20.805664</ele>
                <time>2005-10-29T08:20:59Z</time>
            </trkpt>
            <trkpt lon="100.027149" lat="15.505829">
                <ele>20.324951</ele>
                <time>2005-10-29T08:21:03Z</time>
            </trkpt>
            <trkpt lon="100.027320" lat="15.505743">
                <ele>20.324951</ele>
                <time>2005-10-29T08:21:07Z</time>
            </trkpt>
            <trkpt lon="100.028028" lat="15.505614">
                <ele>20.324951</ele>
                <time>2005-10-29T08:21:20Z</time>
            </trkpt>
            <trkpt lon="100.028243" lat="15.505528">
                <ele>19.844360</ele>
                <time>2005-10-29T08:21:24Z</time>
            </trkpt>
            <trkpt lon="100.028780" lat="15.505185">
                <ele>19.844360</ele>
                <time>2005-10-29T08:21:35Z</time>
            </trkpt>
            <trkpt lon="100.028758" lat="15.505056">
                <ele>19.844360</ele>
                <time>2005-10-29T08:21:40Z</time>
            </trkpt>
            <trkpt lon="100.028501" lat="15.504413">
                <ele>18.883057</ele>
                <time>2005-10-29T08:21:57Z</time>
            </trkpt>
            <trkpt lon="100.028479" lat="15.504370">
                <ele>18.883057</ele>
                <time>2005-10-29T08:21:58Z</time>
            </trkpt>
            <trkpt lon="100.028543" lat="15.503340">
                <ele>18.402344</ele>
                <time>2005-10-29T08:22:18Z</time>
            </trkpt>
            <trkpt lon="100.028522" lat="15.503082">
                <ele>19.363770</ele>
                <time>2005-10-29T08:22:23Z</time>
            </trkpt>
            <trkpt lon="100.028393" lat="15.502889">
                <ele>19.363770</ele>
                <time>2005-10-29T08:22:33Z</time>
            </trkpt>
            <trkpt lon="100.028243" lat="15.502610">
                <ele>18.883057</ele>
                <time>2005-10-29T08:22:46Z</time>
            </trkpt>
            <trkpt lon="100.028179" lat="15.502288">
                <ele>19.844360</ele>
                <time>2005-10-29T08:23:00Z</time>
            </trkpt>
            <trkpt lon="100.027943" lat="15.501752">
                <ele>21.766968</ele>
                <time>2005-10-29T08:23:23Z</time>
            </trkpt>
            <trkpt lon="100.027728" lat="15.501366">
                <ele>18.883057</ele>
                <time>2005-10-29T08:23:37Z</time>
            </trkpt>
            <trkpt lon="100.027514" lat="15.500915">
                <ele>18.402344</ele>
                <time>2005-10-29T08:23:48Z</time>
            </trkpt>
            <trkpt lon="100.027342" lat="15.500722">
                <ele>17.921753</ele>
                <time>2005-10-29T08:23:52Z</time>
            </trkpt>
            <trkpt lon="100.026956" lat="15.499864">
                <ele>17.921753</ele>
                <time>2005-10-29T08:24:08Z</time>
            </trkpt>
            <trkpt lon="100.026848" lat="15.499692">
                <ele>17.921753</ele>
                <time>2005-10-29T08:24:12Z</time>
            </trkpt>
            <trkpt lon="100.026162" lat="15.498898">
                <ele>19.363770</ele>
                <time>2005-10-29T08:24:31Z</time>
            </trkpt>
            <trkpt lon="100.025904" lat="15.498576">
                <ele>18.883057</ele>
                <time>2005-10-29T08:24:39Z</time>
            </trkpt>
            <trkpt lon="100.025840" lat="15.498126">
                <ele>18.402344</ele>
                <time>2005-10-29T08:24:48Z</time>
            </trkpt>
            <trkpt lon="100.025582" lat="15.497310">
                <ele>18.402344</ele>
                <time>2005-10-29T08:25:05Z</time>
            </trkpt>
            <trkpt lon="100.025411" lat="15.497031">
                <ele>18.402344</ele>
                <time>2005-10-29T08:25:11Z</time>
            </trkpt>
            <trkpt lon="100.025132" lat="15.496817">
                <ele>17.441162</ele>
                <time>2005-10-29T08:25:17Z</time>
            </trkpt>
            <trkpt lon="100.024960" lat="15.496538">
                <ele>17.921753</ele>
                <time>2005-10-29T08:25:23Z</time>
            </trkpt>
            <trkpt lon="100.024896" lat="15.496430">
                <ele>17.921753</ele>
                <time>2005-10-29T08:25:25Z</time>
            </trkpt>
            <trkpt lon="100.024788" lat="15.496237">
                <ele>17.921753</ele>
                <time>2005-10-29T08:25:29Z</time>
            </trkpt>
            <trkpt lon="100.024660" lat="15.496087">
                <ele>18.883057</ele>
                <time>2005-10-29T08:25:33Z</time>
            </trkpt>
            <trkpt lon="100.024424" lat="15.495937">
                <ele>18.883057</ele>
                <time>2005-10-29T08:25:38Z</time>
            </trkpt>
            <trkpt lon="100.023394" lat="15.495272">
                <ele>20.324951</ele>
                <time>2005-10-29T08:26:00Z</time>
            </trkpt>
            <trkpt lon="100.023286" lat="15.495057">
                <ele>21.286377</ele>
                <time>2005-10-29T08:26:04Z</time>
            </trkpt>
            <trkpt lon="100.023286" lat="15.494950">
                <ele>21.766968</ele>
                <time>2005-10-29T08:26:06Z</time>
            </trkpt>
            <trkpt lon="100.023136" lat="15.494349">
                <ele>21.286377</ele>
                <time>2005-10-29T08:26:16Z</time>
            </trkpt>
            <trkpt lon="100.022964" lat="15.493233">
                <ele>21.766968</ele>
                <time>2005-10-29T08:26:36Z</time>
            </trkpt>
            <trkpt lon="100.022793" lat="15.492697">
                <ele>21.286377</ele>
                <time>2005-10-29T08:26:47Z</time>
            </trkpt>
            <trkpt lon="100.022664" lat="15.492589">
                <ele>21.286377</ele>
                <time>2005-10-29T08:26:50Z</time>
            </trkpt>
            <trkpt lon="100.022578" lat="15.492547">
                <ele>20.805664</ele>
                <time>2005-10-29T08:26:52Z</time>
            </trkpt>
            <trkpt lon="100.022449" lat="15.492396">
                <ele>20.805664</ele>
                <time>2005-10-29T08:26:56Z</time>
            </trkpt>
            <trkpt lon="100.021999" lat="15.491366">
                <ele>18.402344</ele>
                <time>2005-10-29T08:27:16Z</time>
            </trkpt>
            <trkpt lon="100.021827" lat="15.490808">
                <ele>18.402344</ele>
                <time>2005-10-29T08:27:27Z</time>
            </trkpt>
            <trkpt lon="100.021334" lat="15.489671">
                <ele>21.766968</ele>
                <time>2005-10-29T08:27:49Z</time>
            </trkpt>
            <trkpt lon="100.021312" lat="15.489564">
                <ele>21.766968</ele>
                <time>2005-10-29T08:27:51Z</time>
            </trkpt>
            <trkpt lon="100.021291" lat="15.488577">
                <ele>20.805664</ele>
                <time>2005-10-29T08:28:08Z</time>
            </trkpt>
            <trkpt lon="100.021248" lat="15.488062">
                <ele>20.805664</ele>
                <time>2005-10-29T08:28:18Z</time>
            </trkpt>
            <trkpt lon="100.021291" lat="15.487869">
                <ele>22.728271</ele>
                <time>2005-10-29T08:28:22Z</time>
            </trkpt>
            <trkpt lon="100.021334" lat="15.487783">
                <ele>22.728271</ele>
                <time>2005-10-29T08:28:24Z</time>
            </trkpt>
            <trkpt lon="100.021462" lat="15.487461">
                <ele>22.247559</ele>
                <time>2005-10-29T08:28:30Z</time>
            </trkpt>
            <trkpt lon="100.021656" lat="15.486238">
                <ele>23.689575</ele>
                <time>2005-10-29T08:28:53Z</time>
            </trkpt>
            <trkpt lon="100.021656" lat="15.486174">
                <ele>23.689575</ele>
                <time>2005-10-29T08:28:54Z</time>
            </trkpt>
            <trkpt lon="100.021956" lat="15.485187">
                <ele>24.170288</ele>
                <time>2005-10-29T08:29:13Z</time>
            </trkpt>
            <trkpt lon="100.021977" lat="15.485058">
                <ele>24.170288</ele>
                <time>2005-10-29T08:29:16Z</time>
            </trkpt>
            <trkpt lon="100.022085" lat="15.485058">
                <ele>23.689575</ele>
                <time>2005-10-29T08:29:21Z</time>
            </trkpt>
            <trkpt lon="100.022192" lat="15.485144">
                <ele>23.689575</ele>
                <time>2005-10-29T08:29:32Z</time>
            </trkpt>
            <trkpt lon="100.022557" lat="15.485337">
                <ele>23.689575</ele>
                <time>2005-10-29T08:29:45Z</time>
            </trkpt>
            <trkpt lon="100.022879" lat="15.485659">
                <ele>22.728271</ele>
                <time>2005-10-29T08:29:59Z</time>
            </trkpt>
            <trkpt lon="100.023050" lat="15.485873">
                <ele>22.728271</ele>
                <time>2005-10-29T08:30:07Z</time>
            </trkpt>
            <trkpt lon="100.023072" lat="15.485873">
                <ele>22.247559</ele>
                <time>2005-10-29T08:30:15Z</time>
            </trkpt>
            <trkpt lon="100.023093" lat="15.485830">
                <ele>23.689575</ele>
                <time>2005-10-29T08:30:20Z</time>
            </trkpt>
            <trkpt lon="100.023136" lat="15.485787">
                <ele>26.092896</ele>
                <time>2005-10-29T08:30:40Z</time>
            </trkpt>
            <trkpt lon="100.023243" lat="15.485637">
                <ele>29.457520</ele>
                <time>2005-10-29T08:30:59Z</time>
            </trkpt>
            <trkpt lon="100.023265" lat="15.485530">
                <ele>34.264160</ele>
                <time>2005-10-29T08:31:16Z</time>
            </trkpt>
            <trkpt lon="100.023351" lat="15.485466">
                <ele>35.225464</ele>
                <time>2005-10-29T08:31:33Z</time>
            </trkpt>
            <trkpt lon="100.023394" lat="15.485466">
                <ele>36.186768</ele>
                <time>2005-10-29T08:31:50Z</time>
            </trkpt>
            <trkpt lon="100.023458" lat="15.485487">
                <ele>37.628662</ele>
                <time>2005-10-29T08:32:07Z</time>
            </trkpt>
            <trkpt lon="100.023522" lat="15.485530">
                <ele>38.590088</ele>
                <time>2005-10-29T08:32:15Z</time>
            </trkpt>
            <trkpt lon="100.023587" lat="15.485444">
                <ele>40.993408</ele>
                <time>2005-10-29T08:32:31Z</time>
            </trkpt>
            <trkpt lon="100.023608" lat="15.485423">
                <ele>40.512817</ele>
                <time>2005-10-29T08:32:33Z</time>
            </trkpt>
            <trkpt lon="100.023630" lat="15.485380">
                <ele>40.512817</ele>
                <time>2005-10-29T08:32:41Z</time>
            </trkpt>
            <trkpt lon="100.023608" lat="15.485315">
                <ele>39.551270</ele>
                <time>2005-10-29T08:32:47Z</time>
            </trkpt>
            <trkpt lon="100.023544" lat="15.485272">
                <ele>38.109375</ele>
                <time>2005-10-29T08:33:02Z</time>
            </trkpt>
            <trkpt lon="100.023501" lat="15.485251">
                <ele>38.109375</ele>
                <time>2005-10-29T08:33:23Z</time>
            </trkpt>
            <trkpt lon="100.023437" lat="15.485165">
                <ele>38.590088</ele>
                <time>2005-10-29T08:33:37Z</time>
            </trkpt>
            <trkpt lon="100.023394" lat="15.485165">
                <ele>38.109375</ele>
                <time>2005-10-29T08:33:43Z</time>
            </trkpt>
            <trkpt lon="100.023308" lat="15.485144">
                <ele>37.148071</ele>
                <time>2005-10-29T08:33:50Z</time>
            </trkpt>
            <trkpt lon="100.023201" lat="15.485058">
                <ele>37.628662</ele>
                <time>2005-10-29T08:34:00Z</time>
            </trkpt>
            <trkpt lon="100.023072" lat="15.485015">
                <ele>37.628662</ele>
                <time>2005-10-29T08:34:19Z</time>
            </trkpt>
            <trkpt lon="100.023029" lat="15.484951">
                <ele>37.148071</ele>
                <time>2005-10-29T08:34:27Z</time>
            </trkpt>
            <trkpt lon="100.023007" lat="15.484843">
                <ele>35.706055</ele>
                <time>2005-10-29T08:34:36Z</time>
            </trkpt>
            <trkpt lon="100.022986" lat="15.484800">
                <ele>35.706055</ele>
                <time>2005-10-29T08:34:41Z</time>
            </trkpt>
            <trkpt lon="100.022986" lat="15.484650">
                <ele>33.783447</ele>
                <time>2005-10-29T08:34:49Z</time>
            </trkpt>
            <trkpt lon="100.022986" lat="15.484500">
                <ele>31.860718</ele>
                <time>2005-10-29T08:35:03Z</time>
            </trkpt>
            <trkpt lon="100.023007" lat="15.484478">
                <ele>33.302856</ele>
                <time>2005-10-29T08:35:47Z</time>
            </trkpt>
            <trkpt lon="100.022986" lat="15.484478">
                <ele>32.822266</ele>
                <time>2005-10-29T08:35:49Z</time>
            </trkpt>
            <trkpt lon="100.022922" lat="15.484457">
                <ele>32.822266</ele>
                <time>2005-10-29T08:35:57Z</time>
            </trkpt>
            <trkpt lon="100.022879" lat="15.484393">
                <ele>32.822266</ele>
                <time>2005-10-29T08:36:06Z</time>
            </trkpt>
            <trkpt lon="100.022922" lat="15.484328">
                <ele>31.380127</ele>
                <time>2005-10-29T08:36:10Z</time>
            </trkpt>
            <trkpt lon="100.022986" lat="15.484200">
                <ele>29.457520</ele>
                <time>2005-10-29T08:36:17Z</time>
            </trkpt>
            <trkpt lon="100.023243" lat="15.484264">
                <ele>28.496216</ele>
                <time>2005-10-29T08:36:30Z</time>
            </trkpt>
            <trkpt lon="100.023394" lat="15.484328">
                <ele>28.976929</ele>
                <time>2005-10-29T08:36:37Z</time>
            </trkpt>
            <trkpt lon="100.023458" lat="15.484393">
                <ele>29.457520</ele>
                <time>2005-10-29T08:36:49Z</time>
            </trkpt>
            <trkpt lon="100.023479" lat="15.484457">
                <ele>29.457520</ele>
                <time>2005-10-29T08:36:59Z</time>
            </trkpt>
            <trkpt lon="100.023565" lat="15.484521">
                <ele>29.938110</ele>
                <time>2005-10-29T08:37:16Z</time>
            </trkpt>
            <trkpt lon="100.023630" lat="15.484521">
                <ele>32.822266</ele>
                <time>2005-10-29T08:38:08Z</time>
            </trkpt>
            <trkpt lon="100.023651" lat="15.484521">
                <ele>28.976929</ele>
                <time>2005-10-29T08:38:33Z</time>
            </trkpt>
            <trkpt lon="100.023673" lat="15.484543">
                <ele>28.496216</ele>
                <time>2005-10-29T08:38:41Z</time>
            </trkpt>
            <trkpt lon="100.023758" lat="15.484586">
                <ele>26.573608</ele>
                <time>2005-10-29T08:38:57Z</time>
            </trkpt>
            <trkpt lon="100.023823" lat="15.484629">
                <ele>27.054321</ele>
                <time>2005-10-29T08:39:06Z</time>
            </trkpt>
            <trkpt lon="100.023866" lat="15.484672">
                <ele>27.054321</ele>
                <time>2005-10-29T08:39:10Z</time>
            </trkpt>
            <trkpt lon="100.024080" lat="15.484715">
                <ele>25.131714</ele>
                <time>2005-10-29T08:39:19Z</time>
            </trkpt>
            <trkpt lon="100.024080" lat="15.484607">
                <ele>25.131714</ele>
                <time>2005-10-29T08:39:23Z</time>
            </trkpt>
            <trkpt lon="100.023930" lat="15.484393">
                <ele>24.651001</ele>
                <time>2005-10-29T08:39:30Z</time>
            </trkpt>
            <trkpt lon="100.023930" lat="15.484028">
                <ele>25.131714</ele>
                <time>2005-10-29T08:39:41Z</time>
            </trkpt>
            <trkpt lon="100.023952" lat="15.483942">
                <ele>24.651001</ele>
                <time>2005-10-29T08:39:44Z</time>
            </trkpt>
            <trkpt lon="100.023823" lat="15.483749">
                <ele>23.208984</ele>
                <time>2005-10-29T08:39:49Z</time>
            </trkpt>
            <trkpt lon="100.023694" lat="15.483663">
                <ele>23.208984</ele>
                <time>2005-10-29T08:39:52Z</time>
            </trkpt>
            <trkpt lon="100.023544" lat="15.483534">
                <ele>23.208984</ele>
                <time>2005-10-29T08:39:57Z</time>
            </trkpt>
            <trkpt lon="100.023608" lat="15.483491">
                <ele>23.208984</ele>
                <time>2005-10-29T08:40:02Z</time>
            </trkpt>
            <trkpt lon="100.023930" lat="15.483513">
                <ele>22.247559</ele>
                <time>2005-10-29T08:40:14Z</time>
            </trkpt>
            <trkpt lon="100.024531" lat="15.483384">
                <ele>20.324951</ele>
                <time>2005-10-29T08:40:30Z</time>
            </trkpt>
            <trkpt lon="100.024595" lat="15.483384">
                <ele>20.324951</ele>
                <time>2005-10-29T08:40:32Z</time>
            </trkpt>
            <trkpt lon="100.025282" lat="15.483663">
                <ele>20.324951</ele>
                <time>2005-10-29T08:40:48Z</time>
            </trkpt>
            <trkpt lon="100.025840" lat="15.484092">
                <ele>20.805664</ele>
                <time>2005-10-29T08:41:07Z</time>
            </trkpt>
            <trkpt lon="100.025990" lat="15.484157">
                <ele>21.286377</ele>
                <time>2005-10-29T08:41:27Z</time>
            </trkpt>
            <trkpt lon="100.026419" lat="15.484200">
                <ele>19.844360</ele>
                <time>2005-10-29T08:41:39Z</time>
            </trkpt>
            <trkpt lon="100.026891" lat="15.484071">
                <ele>20.324951</ele>
                <time>2005-10-29T08:41:51Z</time>
            </trkpt>
            <trkpt lon="100.027621" lat="15.483706">
                <ele>18.883057</ele>
                <time>2005-10-29T08:42:09Z</time>
            </trkpt>
            <trkpt lon="100.027664" lat="15.483685">
                <ele>18.883057</ele>
                <time>2005-10-29T08:42:10Z</time>
            </trkpt>
            <trkpt lon="100.028586" lat="15.483556">
                <ele>19.363770</ele>
                <time>2005-10-29T08:42:28Z</time>
            </trkpt>
            <trkpt lon="100.029531" lat="15.483491">
                <ele>19.363770</ele>
                <time>2005-10-29T08:42:47Z</time>
            </trkpt>
            <trkpt lon="100.029681" lat="15.483513">
                <ele>19.363770</ele>
                <time>2005-10-29T08:42:50Z</time>
            </trkpt>
            <trkpt lon="100.030367" lat="15.483835">
                <ele>19.363770</ele>
                <time>2005-10-29T08:43:05Z</time>
            </trkpt>
            <trkpt lon="100.030560" lat="15.483921">
                <ele>19.363770</ele>
                <time>2005-10-29T08:43:09Z</time>
            </trkpt>
            <trkpt lon="100.030818" lat="15.483942">
                <ele>19.363770</ele>
                <time>2005-10-29T08:43:14Z</time>
            </trkpt>
            <trkpt lon="100.031269" lat="15.483835">
                <ele>18.883057</ele>
                <time>2005-10-29T08:43:23Z</time>
            </trkpt>
            <trkpt lon="100.031633" lat="15.483942">
                <ele>17.921753</ele>
                <time>2005-10-29T08:43:30Z</time>
            </trkpt>
            <trkpt lon="100.031955" lat="15.484114">
                <ele>17.441162</ele>
                <time>2005-10-29T08:43:37Z</time>
            </trkpt>
            <trkpt lon="100.032191" lat="15.484135">
                <ele>17.441162</ele>
                <time>2005-10-29T08:43:41Z</time>
            </trkpt>
            <trkpt lon="100.033221" lat="15.483878">
                <ele>17.441162</ele>
                <time>2005-10-29T08:44:01Z</time>
            </trkpt>
            <trkpt lon="100.033329" lat="15.483835">
                <ele>17.441162</ele>
                <time>2005-10-29T08:44:03Z</time>
            </trkpt>
            <trkpt lon="100.034230" lat="15.483770">
                <ele>17.921753</ele>
                <time>2005-10-29T08:44:20Z</time>
            </trkpt>
            <trkpt lon="100.034552" lat="15.483792">
                <ele>18.402344</ele>
                <time>2005-10-29T08:44:26Z</time>
            </trkpt>
            <trkpt lon="100.035324" lat="15.483921">
                <ele>17.921753</ele>
                <time>2005-10-29T08:44:41Z</time>
            </trkpt>
            <trkpt lon="100.036311" lat="15.483727">
                <ele>18.402344</ele>
                <time>2005-10-29T08:45:00Z</time>
            </trkpt>
            <trkpt lon="100.036976" lat="15.483792">
                <ele>17.921753</ele>
                <time>2005-10-29T08:45:13Z</time>
            </trkpt>
            <trkpt lon="100.037749" lat="15.483663">
                <ele>17.921753</ele>
                <time>2005-10-29T08:45:28Z</time>
            </trkpt>
            <trkpt lon="100.038178" lat="15.483599">
                <ele>17.441162</ele>
                <time>2005-10-29T08:45:36Z</time>
            </trkpt>
            <trkpt lon="100.038950" lat="15.483599">
                <ele>17.441162</ele>
                <time>2005-10-29T08:45:51Z</time>
            </trkpt>
            <trkpt lon="100.039680" lat="15.483856">
                <ele>17.921753</ele>
                <time>2005-10-29T08:46:08Z</time>
            </trkpt>
            <trkpt lon="100.039830" lat="15.483899">
                <ele>17.921753</ele>
                <time>2005-10-29T08:46:12Z</time>
            </trkpt>
            <trkpt lon="100.040066" lat="15.483856">
                <ele>17.921753</ele>
                <time>2005-10-29T08:46:17Z</time>
            </trkpt>
            <trkpt lon="100.040281" lat="15.483749">
                <ele>17.921753</ele>
                <time>2005-10-29T08:46:23Z</time>
            </trkpt>
            <trkpt lon="100.040517" lat="15.483620">
                <ele>17.921753</ele>
                <time>2005-10-29T08:46:29Z</time>
            </trkpt>
            <trkpt lon="100.040689" lat="15.483470">
                <ele>17.441162</ele>
                <time>2005-10-29T08:46:34Z</time>
            </trkpt>
            <trkpt lon="100.041053" lat="15.483127">
                <ele>15.999023</ele>
                <time>2005-10-29T08:46:44Z</time>
            </trkpt>
            <trkpt lon="100.041161" lat="15.482998">
                <ele>15.999023</ele>
                <time>2005-10-29T08:46:47Z</time>
            </trkpt>
            <trkpt lon="100.041633" lat="15.482633">
                <ele>15.999023</ele>
                <time>2005-10-29T08:47:01Z</time>
            </trkpt>
            <trkpt lon="100.042341" lat="15.482376">
                <ele>15.999023</ele>
                <time>2005-10-29T08:47:18Z</time>
            </trkpt>
            <trkpt lon="100.042512" lat="15.482311">
                <ele>16.479736</ele>
                <time>2005-10-29T08:47:22Z</time>
            </trkpt>
            <trkpt lon="100.043478" lat="15.482161">
                <ele>17.921753</ele>
                <time>2005-10-29T08:47:41Z</time>
            </trkpt>
            <trkpt lon="100.044036" lat="15.482075">
                <ele>17.921753</ele>
                <time>2005-10-29T08:47:52Z</time>
            </trkpt>
            <trkpt lon="100.044186" lat="15.482032">
                <ele>17.921753</ele>
                <time>2005-10-29T08:47:55Z</time>
            </trkpt>
            <trkpt lon="100.044293" lat="15.482011">
                <ele>17.921753</ele>
                <time>2005-10-29T08:47:57Z</time>
            </trkpt>
            <trkpt lon="100.045044" lat="15.481882">
                <ele>17.441162</ele>
                <time>2005-10-29T08:48:13Z</time>
            </trkpt>
            <trkpt lon="100.046010" lat="15.481839">
                <ele>17.441162</ele>
                <time>2005-10-29T08:48:33Z</time>
            </trkpt>
            <trkpt lon="100.046847" lat="15.481753">
                <ele>17.441162</ele>
                <time>2005-10-29T08:48:50Z</time>
            </trkpt>
            <trkpt lon="100.047362" lat="15.481732">
                <ele>17.441162</ele>
                <time>2005-10-29T08:49:00Z</time>
            </trkpt>
            <trkpt lon="100.047812" lat="15.481625">
                <ele>15.999023</ele>
                <time>2005-10-29T08:49:09Z</time>
            </trkpt>
            <trkpt lon="100.047898" lat="15.481625">
                <ele>15.999023</ele>
                <time>2005-10-29T08:49:11Z</time>
            </trkpt>
            <trkpt lon="100.048692" lat="15.481904">
                <ele>15.518433</ele>
                <time>2005-10-29T08:49:27Z</time>
            </trkpt>
            <trkpt lon="100.048864" lat="15.481968">
                <ele>15.999023</ele>
                <time>2005-10-29T08:49:31Z</time>
            </trkpt>
            <trkpt lon="100.049593" lat="15.482097">
                <ele>16.479736</ele>
                <time>2005-10-29T08:49:46Z</time>
            </trkpt>
            <trkpt lon="100.050366" lat="15.482075">
                <ele>15.999023</ele>
                <time>2005-10-29T08:50:01Z</time>
            </trkpt>
            <trkpt lon="100.051224" lat="15.481710">
                <ele>15.999023</ele>
                <time>2005-10-29T08:50:20Z</time>
            </trkpt>
            <trkpt lon="100.051289" lat="15.481710">
                <ele>15.999023</ele>
                <time>2005-10-29T08:50:21Z</time>
            </trkpt>
            <trkpt lon="100.051525" lat="15.481882">
                <ele>15.999023</ele>
                <time>2005-10-29T08:50:28Z</time>
            </trkpt>
            <trkpt lon="100.051782" lat="15.481925">
                <ele>16.479736</ele>
                <time>2005-10-29T08:50:34Z</time>
            </trkpt>
            <trkpt lon="100.052726" lat="15.481539">
                <ele>15.518433</ele>
                <time>2005-10-29T08:50:54Z</time>
            </trkpt>
            <trkpt lon="100.053864" lat="15.481088">
                <ele>15.999023</ele>
                <time>2005-10-29T08:51:18Z</time>
            </trkpt>
            <trkpt lon="100.054550" lat="15.480809">
                <ele>15.999023</ele>
                <time>2005-10-29T08:51:32Z</time>
            </trkpt>
            <trkpt lon="100.054679" lat="15.480466">
                <ele>15.999023</ele>
                <time>2005-10-29T08:51:40Z</time>
            </trkpt>
            <trkpt lon="100.054679" lat="15.480080">
                <ele>16.960449</ele>
                <time>2005-10-29T08:51:48Z</time>
            </trkpt>
            <trkpt lon="100.054851" lat="15.479908">
                <ele>17.921753</ele>
                <time>2005-10-29T08:51:54Z</time>
            </trkpt>
            <trkpt lon="100.054979" lat="15.479887">
                <ele>17.921753</ele>
                <time>2005-10-29T08:51:57Z</time>
            </trkpt>
            <trkpt lon="100.055258" lat="15.479715">
                <ele>17.921753</ele>
                <time>2005-10-29T08:52:04Z</time>
            </trkpt>
            <trkpt lon="100.055494" lat="15.479629">
                <ele>17.441162</ele>
                <time>2005-10-29T08:52:09Z</time>
            </trkpt>
            <trkpt lon="100.056331" lat="15.479479">
                <ele>18.402344</ele>
                <time>2005-10-29T08:52:26Z</time>
            </trkpt>
            <trkpt lon="100.056610" lat="15.479543">
                <ele>18.402344</ele>
                <time>2005-10-29T08:52:32Z</time>
            </trkpt>
            <trkpt lon="100.056932" lat="15.479522">
                <ele>17.921753</ele>
                <time>2005-10-29T08:52:38Z</time>
            </trkpt>
            <trkpt lon="100.057297" lat="15.479178">
                <ele>16.960449</ele>
                <time>2005-10-29T08:52:47Z</time>
            </trkpt>
            <trkpt lon="100.057576" lat="15.478835">
                <ele>16.960449</ele>
                <time>2005-10-29T08:52:56Z</time>
            </trkpt>
            <trkpt lon="100.057833" lat="15.478771">
                <ele>16.960449</ele>
                <time>2005-10-29T08:53:02Z</time>
            </trkpt>
            <trkpt lon="100.058198" lat="15.478899">
                <ele>15.999023</ele>
                <time>2005-10-29T08:53:10Z</time>
            </trkpt>
            <trkpt lon="100.058992" lat="15.479264">
                <ele>15.518433</ele>
                <time>2005-10-29T08:53:27Z</time>
            </trkpt>
            <trkpt lon="100.059721" lat="15.479522">
                <ele>15.037720</ele>
                <time>2005-10-29T08:53:41Z</time>
            </trkpt>
            <trkpt lon="100.060494" lat="15.479479">
                <ele>15.999023</ele>
                <time>2005-10-29T08:53:56Z</time>
            </trkpt>
            <trkpt lon="100.060644" lat="15.479457">
                <ele>15.999023</ele>
                <time>2005-10-29T08:53:59Z</time>
            </trkpt>
            <trkpt lon="100.061095" lat="15.479457">
                <ele>15.999023</ele>
                <time>2005-10-29T08:54:08Z</time>
            </trkpt>
            <trkpt lon="100.061610" lat="15.479479">
                <ele>17.441162</ele>
                <time>2005-10-29T08:54:21Z</time>
            </trkpt>
            <trkpt lon="100.061867" lat="15.479329">
                <ele>16.960449</ele>
                <time>2005-10-29T08:54:30Z</time>
            </trkpt>
            <trkpt lon="100.062103" lat="15.479136">
                <ele>15.037720</ele>
                <time>2005-10-29T08:54:40Z</time>
            </trkpt>
            <trkpt lon="100.062082" lat="15.479136">
                <ele>14.557007</ele>
                <time>2005-10-29T08:54:53Z</time>
            </trkpt>
            <trkpt lon="100.062060" lat="15.479093">
                <ele>15.037720</ele>
                <time>2005-10-29T08:55:09Z</time>
            </trkpt>
            <trkpt lon="100.062082" lat="15.479050">
                <ele>15.999023</ele>
                <time>2005-10-29T08:55:23Z</time>
            </trkpt>
            <trkpt lon="100.062103" lat="15.479028">
                <ele>17.441162</ele>
                <time>2005-10-29T08:55:59Z</time>
            </trkpt>
            <trkpt lon="100.062103" lat="15.479050">
                <ele>16.479736</ele>
                <time>2005-10-29T08:56:12Z</time>
            </trkpt>
            <trkpt lon="100.062146" lat="15.479093">
                <ele>15.999023</ele>
                <time>2005-10-29T08:56:24Z</time>
            </trkpt>
            <trkpt lon="100.062146" lat="15.479114">
                <ele>15.037720</ele>
                <time>2005-10-29T08:56:45Z</time>
            </trkpt>
            <trkpt lon="100.062168" lat="15.479114">
                <ele>17.441162</ele>
                <time>2005-10-29T08:57:28Z</time>
            </trkpt>
            <trkpt lon="100.062189" lat="15.479093">
                <ele>16.479736</ele>
                <time>2005-10-29T08:57:45Z</time>
            </trkpt>
            <trkpt lon="100.062232" lat="15.479093">
                <ele>13.115112</ele>
                <time>2005-10-29T08:58:48Z</time>
            </trkpt>
            <trkpt lon="100.062575" lat="15.479028">
                <ele>14.076416</ele>
                <time>2005-10-29T08:59:01Z</time>
            </trkpt>
            <trkpt lon="100.063090" lat="15.479071">
                <ele>14.557007</ele>
                <time>2005-10-29T08:59:14Z</time>
            </trkpt>
            <trkpt lon="100.063498" lat="15.479050">
                <ele>15.037720</ele>
                <time>2005-10-29T08:59:25Z</time>
            </trkpt>
            <trkpt lon="100.063562" lat="15.478857">
                <ele>15.037720</ele>
                <time>2005-10-29T08:59:31Z</time>
            </trkpt>
            <trkpt lon="100.063562" lat="15.478771">
                <ele>15.518433</ele>
                <time>2005-10-29T08:59:33Z</time>
            </trkpt>
            <trkpt lon="100.063627" lat="15.478599">
                <ele>15.999023</ele>
                <time>2005-10-29T08:59:37Z</time>
            </trkpt>
            <trkpt lon="100.064013" lat="15.478084">
                <ele>16.479736</ele>
                <time>2005-10-29T08:59:51Z</time>
            </trkpt>
            <trkpt lon="100.064056" lat="15.478020">
                <ele>15.999023</ele>
                <time>2005-10-29T08:59:53Z</time>
            </trkpt>
            <trkpt lon="100.064185" lat="15.477655">
                <ele>15.999023</ele>
                <time>2005-10-29T09:00:04Z</time>
            </trkpt>
            <trkpt lon="100.064099" lat="15.476904">
                <ele>16.960449</ele>
                <time>2005-10-29T09:00:21Z</time>
            </trkpt>
            <trkpt lon="100.064077" lat="15.476754">
                <ele>16.960449</ele>
                <time>2005-10-29T09:00:24Z</time>
            </trkpt>
            <trkpt lon="100.064034" lat="15.476453">
                <ele>17.441162</ele>
                <time>2005-10-29T09:00:36Z</time>
            </trkpt>
            <trkpt lon="100.064356" lat="15.476282">
                <ele>16.960449</ele>
                <time>2005-10-29T09:00:50Z</time>
            </trkpt>
            <trkpt lon="100.064807" lat="15.476046">
                <ele>16.960449</ele>
                <time>2005-10-29T09:01:04Z</time>
            </trkpt>
            <trkpt lon="100.065386" lat="15.475788">
                <ele>16.479736</ele>
                <time>2005-10-29T09:01:21Z</time>
            </trkpt>
            <trkpt lon="100.065966" lat="15.475552">
                <ele>16.479736</ele>
                <time>2005-10-29T09:01:39Z</time>
            </trkpt>
            <trkpt lon="100.066073" lat="15.475488">
                <ele>16.479736</ele>
                <time>2005-10-29T09:01:43Z</time>
            </trkpt>
            <trkpt lon="100.065987" lat="15.475380">
                <ele>16.479736</ele>
                <time>2005-10-29T09:01:48Z</time>
            </trkpt>
            <trkpt lon="100.065365" lat="15.475230">
                <ele>15.999023</ele>
                <time>2005-10-29T09:02:04Z</time>
            </trkpt>
            <trkpt lon="100.064957" lat="15.474994">
                <ele>15.999023</ele>
                <time>2005-10-29T09:02:16Z</time>
            </trkpt>
            <trkpt lon="100.065000" lat="15.474522">
                <ele>15.999023</ele>
                <time>2005-10-29T09:02:29Z</time>
            </trkpt>
            <trkpt lon="100.065043" lat="15.474458">
                <ele>16.960449</ele>
                <time>2005-10-29T09:02:31Z</time>
            </trkpt>
            <trkpt lon="100.065236" lat="15.474329">
                <ele>16.960449</ele>
                <time>2005-10-29T09:02:37Z</time>
            </trkpt>
            <trkpt lon="100.065365" lat="15.474286">
                <ele>16.960449</ele>
                <time>2005-10-29T09:02:40Z</time>
            </trkpt>
            <trkpt lon="100.065536" lat="15.474136">
                <ele>16.479736</ele>
                <time>2005-10-29T09:02:45Z</time>
            </trkpt>
            <trkpt lon="100.066030" lat="15.473471">
                <ele>17.441162</ele>
                <time>2005-10-29T09:03:03Z</time>
            </trkpt>
            <trkpt lon="100.066073" lat="15.473385">
                <ele>17.441162</ele>
                <time>2005-10-29T09:03:05Z</time>
            </trkpt>
            <trkpt lon="100.066051" lat="15.473235">
                <ele>17.441162</ele>
                <time>2005-10-29T09:03:09Z</time>
            </trkpt>
            <trkpt lon="100.065880" lat="15.472999">
                <ele>16.960449</ele>
                <time>2005-10-29T09:03:15Z</time>
            </trkpt>
            <trkpt lon="100.065751" lat="15.472677">
                <ele>16.960449</ele>
                <time>2005-10-29T09:03:22Z</time>
            </trkpt>
            <trkpt lon="100.065794" lat="15.472312">
                <ele>16.960449</ele>
                <time>2005-10-29T09:03:30Z</time>
            </trkpt>
            <trkpt lon="100.065858" lat="15.472183">
                <ele>17.441162</ele>
                <time>2005-10-29T09:03:33Z</time>
            </trkpt>
            <trkpt lon="100.066094" lat="15.472076">
                <ele>17.441162</ele>
                <time>2005-10-29T09:03:38Z</time>
            </trkpt>
            <trkpt lon="100.066223" lat="15.472033">
                <ele>17.921753</ele>
                <time>2005-10-29T09:03:41Z</time>
            </trkpt>
            <trkpt lon="100.066330" lat="15.471776">
                <ele>17.921753</ele>
                <time>2005-10-29T09:03:48Z</time>
            </trkpt>
            <trkpt lon="100.066309" lat="15.471733">
                <ele>17.441162</ele>
                <time>2005-10-29T09:03:49Z</time>
            </trkpt>
            <trkpt lon="100.066180" lat="15.471475">
                <ele>17.441162</ele>
                <time>2005-10-29T09:03:55Z</time>
            </trkpt>
            <trkpt lon="100.066180" lat="15.471303">
                <ele>17.921753</ele>
                <time>2005-10-29T09:03:59Z</time>
            </trkpt>
            <trkpt lon="100.066373" lat="15.470831">
                <ele>17.921753</ele>
                <time>2005-10-29T09:04:10Z</time>
            </trkpt>
            <trkpt lon="100.066395" lat="15.470552">
                <ele>17.441162</ele>
                <time>2005-10-29T09:04:16Z</time>
            </trkpt>
            <trkpt lon="100.066288" lat="15.469759">
                <ele>18.883057</ele>
                <time>2005-10-29T09:04:33Z</time>
            </trkpt>
            <trkpt lon="100.066309" lat="15.469458">
                <ele>19.363770</ele>
                <time>2005-10-29T09:04:40Z</time>
            </trkpt>
            <trkpt lon="100.066459" lat="15.469415">
                <ele>18.402344</ele>
                <time>2005-10-29T09:04:44Z</time>
            </trkpt>
            <trkpt lon="100.067339" lat="15.469372">
                <ele>16.960449</ele>
                <time>2005-10-29T09:05:01Z</time>
            </trkpt>
            <trkpt lon="100.067618" lat="15.469308">
                <ele>16.960449</ele>
                <time>2005-10-29T09:05:06Z</time>
            </trkpt>
            <trkpt lon="100.068605" lat="15.469415">
                <ele>15.999023</ele>
                <time>2005-10-29T09:05:24Z</time>
            </trkpt>
            <trkpt lon="100.069613" lat="15.469587">
                <ele>16.479736</ele>
                <time>2005-10-29T09:05:44Z</time>
            </trkpt>
            <trkpt lon="100.070536" lat="15.469565">
                <ele>17.441162</ele>
                <time>2005-10-29T09:06:01Z</time>
            </trkpt>
            <trkpt lon="100.070643" lat="15.469544">
                <ele>17.441162</ele>
                <time>2005-10-29T09:06:03Z</time>
            </trkpt>
            <trkpt lon="100.071588" lat="15.469286">
                <ele>17.921753</ele>
                <time>2005-10-29T09:06:23Z</time>
            </trkpt>
            <trkpt lon="100.071931" lat="15.469265">
                <ele>17.921753</ele>
                <time>2005-10-29T09:06:31Z</time>
            </trkpt>
            <trkpt lon="100.072124" lat="15.469244">
                <ele>17.921753</ele>
                <time>2005-10-29T09:06:35Z</time>
            </trkpt>
            <trkpt lon="100.072961" lat="15.469480">
                <ele>17.921753</ele>
                <time>2005-10-29T09:06:53Z</time>
            </trkpt>
            <trkpt lon="100.073583" lat="15.469458">
                <ele>18.402344</ele>
                <time>2005-10-29T09:07:09Z</time>
            </trkpt>
            <trkpt lon="100.074334" lat="15.469480">
                <ele>18.883057</ele>
                <time>2005-10-29T09:07:26Z</time>
            </trkpt>
            <trkpt lon="100.075300" lat="15.469437">
                <ele>17.921753</ele>
                <time>2005-10-29T09:07:44Z</time>
            </trkpt>
            <trkpt lon="100.075965" lat="15.469286">
                <ele>17.921753</ele>
                <time>2005-10-29T09:07:56Z</time>
            </trkpt>
            <trkpt lon="100.076308" lat="15.469480">
                <ele>17.441162</ele>
                <time>2005-10-29T09:08:04Z</time>
            </trkpt>
            <trkpt lon="100.076480" lat="15.469780">
                <ele>17.921753</ele>
                <time>2005-10-29T09:08:11Z</time>
            </trkpt>
            <trkpt lon="100.076716" lat="15.469930">
                <ele>17.921753</ele>
                <time>2005-10-29T09:08:16Z</time>
            </trkpt>
            <trkpt lon="100.077553" lat="15.470016">
                <ele>17.921753</ele>
                <time>2005-10-29T09:08:32Z</time>
            </trkpt>
            <trkpt lon="100.078390" lat="15.470059">
                <ele>18.402344</ele>
                <time>2005-10-29T09:08:49Z</time>
            </trkpt>
            <trkpt lon="100.079377" lat="15.470123">
                <ele>18.883057</ele>
                <time>2005-10-29T09:09:08Z</time>
            </trkpt>
            <trkpt lon="100.080450" lat="15.470037">
                <ele>18.883057</ele>
                <time>2005-10-29T09:09:29Z</time>
            </trkpt>
            <trkpt lon="100.081415" lat="15.469973">
                <ele>18.402344</ele>
                <time>2005-10-29T09:09:47Z</time>
            </trkpt>
            <trkpt lon="100.081565" lat="15.470037">
                <ele>18.402344</ele>
                <time>2005-10-29T09:09:50Z</time>
            </trkpt>
            <trkpt lon="100.082102" lat="15.470488">
                <ele>17.441162</ele>
                <time>2005-10-29T09:10:04Z</time>
            </trkpt>
            <trkpt lon="100.082295" lat="15.470574">
                <ele>17.441162</ele>
                <time>2005-10-29T09:10:08Z</time>
            </trkpt>
            <trkpt lon="100.082402" lat="15.470574">
                <ele>17.441162</ele>
                <time>2005-10-29T09:10:10Z</time>
            </trkpt>
            <trkpt lon="100.083346" lat="15.470424">
                <ele>17.441162</ele>
                <time>2005-10-29T09:10:28Z</time>
            </trkpt>
            <trkpt lon="100.083969" lat="15.470188">
                <ele>16.960449</ele>
                <time>2005-10-29T09:10:40Z</time>
            </trkpt>
            <trkpt lon="100.085127" lat="15.470102">
                <ele>15.518433</ele>
                <time>2005-10-29T09:11:02Z</time>
            </trkpt>
            <trkpt lon="100.085835" lat="15.470037">
                <ele>16.960449</ele>
                <time>2005-10-29T09:11:17Z</time>
            </trkpt>
            <trkpt lon="100.085878" lat="15.469909">
                <ele>16.479736</ele>
                <time>2005-10-29T09:11:21Z</time>
            </trkpt>
            <trkpt lon="100.085900" lat="15.469029">
                <ele>15.518433</ele>
                <time>2005-10-29T09:11:40Z</time>
            </trkpt>
            <trkpt lon="100.086308" lat="15.468364">
                <ele>14.557007</ele>
                <time>2005-10-29T09:11:56Z</time>
            </trkpt>
            <trkpt lon="100.086951" lat="15.467505">
                <ele>15.518433</ele>
                <time>2005-10-29T09:12:16Z</time>
            </trkpt>
            <trkpt lon="100.087337" lat="15.466883">
                <ele>15.037720</ele>
                <time>2005-10-29T09:12:30Z</time>
            </trkpt>
            <trkpt lon="100.087488" lat="15.466368">
                <ele>15.518433</ele>
                <time>2005-10-29T09:12:40Z</time>
            </trkpt>
            <trkpt lon="100.088024" lat="15.465510">
                <ele>16.960449</ele>
                <time>2005-10-29T09:12:59Z</time>
            </trkpt>
            <trkpt lon="100.088561" lat="15.464544">
                <ele>18.402344</ele>
                <time>2005-10-29T09:13:20Z</time>
            </trkpt>
            <trkpt lon="100.088840" lat="15.463686">
                <ele>20.324951</ele>
                <time>2005-10-29T09:13:37Z</time>
            </trkpt>
            <trkpt lon="100.089183" lat="15.462785">
                <ele>21.286377</ele>
                <time>2005-10-29T09:13:57Z</time>
            </trkpt>
            <trkpt lon="100.089612" lat="15.461648">
                <ele>21.766968</ele>
                <time>2005-10-29T09:14:20Z</time>
            </trkpt>
            <trkpt lon="100.090342" lat="15.460618">
                <ele>20.805664</ele>
                <time>2005-10-29T09:14:43Z</time>
            </trkpt>
            <trkpt lon="100.090706" lat="15.460060">
                <ele>21.766968</ele>
                <time>2005-10-29T09:14:56Z</time>
            </trkpt>
            <trkpt lon="100.090985" lat="15.459094">
                <ele>20.805664</ele>
                <time>2005-10-29T09:15:16Z</time>
            </trkpt>
            <trkpt lon="100.091522" lat="15.458472">
                <ele>19.844360</ele>
                <time>2005-10-29T09:15:32Z</time>
            </trkpt>
            <trkpt lon="100.092165" lat="15.457785">
                <ele>20.324951</ele>
                <time>2005-10-29T09:15:49Z</time>
            </trkpt>
            <trkpt lon="100.092959" lat="15.456583">
                <ele>19.363770</ele>
                <time>2005-10-29T09:16:15Z</time>
            </trkpt>
            <trkpt lon="100.093710" lat="15.456004">
                <ele>18.883057</ele>
                <time>2005-10-29T09:16:32Z</time>
            </trkpt>
            <trkpt lon="100.094118" lat="15.455360">
                <ele>18.883057</ele>
                <time>2005-10-29T09:16:45Z</time>
            </trkpt>
            <trkpt lon="100.094268" lat="15.455103">
                <ele>18.883057</ele>
                <time>2005-10-29T09:16:50Z</time>
            </trkpt>
            <trkpt lon="100.094311" lat="15.454760">
                <ele>18.883057</ele>
                <time>2005-10-29T09:16:56Z</time>
            </trkpt>
            <trkpt lon="100.094225" lat="15.454309">
                <ele>18.402344</ele>
                <time>2005-10-29T09:17:04Z</time>
            </trkpt>
            <trkpt lon="100.094419" lat="15.453193">
                <ele>15.999023</ele>
                <time>2005-10-29T09:17:24Z</time>
            </trkpt>
            <trkpt lon="100.094333" lat="15.452228">
                <ele>14.557007</ele>
                <time>2005-10-29T09:17:42Z</time>
            </trkpt>
            <trkpt lon="100.094247" lat="15.451841">
                <ele>13.115112</ele>
                <time>2005-10-29T09:17:49Z</time>
            </trkpt>
            <trkpt lon="100.094440" lat="15.451691">
                <ele>12.634399</ele>
                <time>2005-10-29T09:17:55Z</time>
            </trkpt>
            <trkpt lon="100.094569" lat="15.451777">
                <ele>12.634399</ele>
                <time>2005-10-29T09:17:58Z</time>
            </trkpt>
            <trkpt lon="100.095427" lat="15.452464">
                <ele>14.076416</ele>
                <time>2005-10-29T09:18:19Z</time>
            </trkpt>
            <trkpt lon="100.096242" lat="15.453150">
                <ele>17.441162</ele>
                <time>2005-10-29T09:18:39Z</time>
            </trkpt>
            <trkpt lon="100.097208" lat="15.453451">
                <ele>17.921753</ele>
                <time>2005-10-29T09:18:57Z</time>
            </trkpt>
            <trkpt lon="100.097573" lat="15.453472">
                <ele>16.960449</ele>
                <time>2005-10-29T09:19:04Z</time>
            </trkpt>
            <trkpt lon="100.097723" lat="15.453451">
                <ele>16.960449</ele>
                <time>2005-10-29T09:19:07Z</time>
            </trkpt>
            <trkpt lon="100.098774" lat="15.452979">
                <ele>15.999023</ele>
                <time>2005-10-29T09:19:28Z</time>
            </trkpt>
            <trkpt lon="100.098989" lat="15.453000">
                <ele>15.999023</ele>
                <time>2005-10-29T09:19:32Z</time>
            </trkpt>
            <trkpt lon="100.099568" lat="15.453193">
                <ele>16.479736</ele>
                <time>2005-10-29T09:19:44Z</time>
            </trkpt>
            <trkpt lon="100.100384" lat="15.453043">
                <ele>18.402344</ele>
                <time>2005-10-29T09:20:00Z</time>
            </trkpt>
            <trkpt lon="100.100448" lat="15.453022">
                <ele>18.402344</ele>
                <time>2005-10-29T09:20:01Z</time>
            </trkpt>
            <trkpt lon="100.101800" lat="15.453022">
                <ele>18.883057</ele>
                <time>2005-10-29T09:20:26Z</time>
            </trkpt>
            <trkpt lon="100.102894" lat="15.453043">
                <ele>19.844360</ele>
                <time>2005-10-29T09:20:47Z</time>
            </trkpt>
            <trkpt lon="100.103946" lat="15.452850">
                <ele>20.324951</ele>
                <time>2005-10-29T09:21:07Z</time>
            </trkpt>
            <trkpt lon="100.104568" lat="15.452743">
                <ele>19.844360</ele>
                <time>2005-10-29T09:21:19Z</time>
            </trkpt>
            <trkpt lon="100.104997" lat="15.452979">
                <ele>18.883057</ele>
                <time>2005-10-29T09:21:28Z</time>
            </trkpt>
            <trkpt lon="100.105426" lat="15.453622">
                <ele>20.324951</ele>
                <time>2005-10-29T09:21:42Z</time>
            </trkpt>
            <trkpt lon="100.105555" lat="15.453880">
                <ele>20.324951</ele>
                <time>2005-10-29T09:21:47Z</time>
            </trkpt>
            <trkpt lon="100.105577" lat="15.453987">
                <ele>19.844360</ele>
                <time>2005-10-29T09:21:49Z</time>
            </trkpt>
            <trkpt lon="100.105491" lat="15.454395">
                <ele>19.363770</ele>
                <time>2005-10-29T09:21:57Z</time>
            </trkpt>
            <trkpt lon="100.105619" lat="15.455167">
                <ele>22.247559</ele>
                <time>2005-10-29T09:22:13Z</time>
            </trkpt>
            <trkpt lon="100.105727" lat="15.455339">
                <ele>22.247559</ele>
                <time>2005-10-29T09:22:17Z</time>
            </trkpt>
            <trkpt lon="100.105813" lat="15.455382">
                <ele>22.728271</ele>
                <time>2005-10-29T09:22:19Z</time>
            </trkpt>
            <trkpt lon="100.106049" lat="15.455489">
                <ele>22.247559</ele>
                <time>2005-10-29T09:22:24Z</time>
            </trkpt>
            <trkpt lon="100.106499" lat="15.455532">
                <ele>21.766968</ele>
                <time>2005-10-29T09:22:34Z</time>
            </trkpt>
            <trkpt lon="100.106499" lat="15.455618">
                <ele>22.247559</ele>
                <time>2005-10-29T09:22:42Z</time>
            </trkpt>
            <trkpt lon="100.106499" lat="15.455639">
                <ele>20.324951</ele>
                <time>2005-10-29T09:22:57Z</time>
            </trkpt>
            <trkpt lon="100.106392" lat="15.455940">
                <ele>20.324951</ele>
                <time>2005-10-29T09:23:10Z</time>
            </trkpt>
            <trkpt lon="100.105941" lat="15.456712">
                <ele>18.883057</ele>
                <time>2005-10-29T09:23:30Z</time>
            </trkpt>
            <trkpt lon="100.105491" lat="15.457571">
                <ele>19.363770</ele>
                <time>2005-10-29T09:23:49Z</time>
            </trkpt>
            <trkpt lon="100.105190" lat="15.458429">
                <ele>18.402344</ele>
                <time>2005-10-29T09:24:06Z</time>
            </trkpt>
            <trkpt lon="100.105062" lat="15.459523">
                <ele>18.402344</ele>
                <time>2005-10-29T09:24:27Z</time>
            </trkpt>
            <trkpt lon="100.104847" lat="15.459566">
                <ele>18.883057</ele>
                <time>2005-10-29T09:24:33Z</time>
            </trkpt>
            <trkpt lon="100.103903" lat="15.459287">
                <ele>19.844360</ele>
                <time>2005-10-29T09:24:52Z</time>
            </trkpt>
            <trkpt lon="100.102980" lat="15.459030">
                <ele>20.805664</ele>
                <time>2005-10-29T09:25:10Z</time>
            </trkpt>
            <trkpt lon="100.102165" lat="15.459030">
                <ele>21.286377</ele>
                <time>2005-10-29T09:25:25Z</time>
            </trkpt>
            <trkpt lon="100.102015" lat="15.459158">
                <ele>21.286377</ele>
                <time>2005-10-29T09:25:29Z</time>
            </trkpt>
            <trkpt lon="100.101435" lat="15.459845">
                <ele>18.883057</ele>
                <time>2005-10-29T09:25:47Z</time>
            </trkpt>
            <trkpt lon="100.101371" lat="15.459974">
                <ele>17.921753</ele>
                <time>2005-10-29T09:25:50Z</time>
            </trkpt>
            <trkpt lon="100.101178" lat="15.460081">
                <ele>18.402344</ele>
                <time>2005-10-29T09:25:55Z</time>
            </trkpt>
            <trkpt lon="100.100749" lat="15.460103">
                <ele>18.883057</ele>
                <time>2005-10-29T09:26:04Z</time>
            </trkpt>
            <trkpt lon="100.100534" lat="15.460210">
                <ele>17.921753</ele>
                <time>2005-10-29T09:26:10Z</time>
            </trkpt>
            <trkpt lon="100.100169" lat="15.460489">
                <ele>16.479736</ele>
                <time>2005-10-29T09:26:20Z</time>
            </trkpt>
            <trkpt lon="100.100019" lat="15.460639">
                <ele>16.479736</ele>
                <time>2005-10-29T09:26:24Z</time>
            </trkpt>
            <trkpt lon="100.099483" lat="15.461454">
                <ele>16.479736</ele>
                <time>2005-10-29T09:26:43Z</time>
            </trkpt>
            <trkpt lon="100.098968" lat="15.462120">
                <ele>16.960449</ele>
                <time>2005-10-29T09:27:00Z</time>
            </trkpt>
            <trkpt lon="100.098174" lat="15.462999">
                <ele>15.518433</ele>
                <time>2005-10-29T09:27:23Z</time>
            </trkpt>
            <trkpt lon="100.097659" lat="15.463600">
                <ele>15.999023</ele>
                <time>2005-10-29T09:27:38Z</time>
            </trkpt>
            <trkpt lon="100.097530" lat="15.463815">
                <ele>15.999023</ele>
                <time>2005-10-29T09:27:43Z</time>
            </trkpt>
            <trkpt lon="100.096951" lat="15.464394">
                <ele>17.921753</ele>
                <time>2005-10-29T09:28:00Z</time>
            </trkpt>
            <trkpt lon="100.096328" lat="15.465145">
                <ele>15.999023</ele>
                <time>2005-10-29T09:28:20Z</time>
            </trkpt>
            <trkpt lon="100.095985" lat="15.465553">
                <ele>15.999023</ele>
                <time>2005-10-29T09:28:30Z</time>
            </trkpt>
            <trkpt lon="100.095599" lat="15.466089">
                <ele>15.999023</ele>
                <time>2005-10-29T09:28:44Z</time>
            </trkpt>
            <trkpt lon="100.095105" lat="15.466797">
                <ele>17.441162</ele>
                <time>2005-10-29T09:29:01Z</time>
            </trkpt>
            <trkpt lon="100.094805" lat="15.467162">
                <ele>17.441162</ele>
                <time>2005-10-29T09:29:11Z</time>
            </trkpt>
            <trkpt lon="100.094504" lat="15.467463">
                <ele>17.921753</ele>
                <time>2005-10-29T09:29:22Z</time>
            </trkpt>
            <trkpt lon="100.094440" lat="15.467548">
                <ele>18.883057</ele>
                <time>2005-10-29T09:29:26Z</time>
            </trkpt>
            <trkpt lon="100.094397" lat="15.467634">
                <ele>18.883057</ele>
                <time>2005-10-29T09:29:29Z</time>
            </trkpt>
            <trkpt lon="100.094161" lat="15.467806">
                <ele>19.363770</ele>
                <time>2005-10-29T09:29:37Z</time>
            </trkpt>
            <trkpt lon="100.094075" lat="15.467806">
                <ele>19.844360</ele>
                <time>2005-10-29T09:29:39Z</time>
            </trkpt>
            <trkpt lon="100.093925" lat="15.467699">
                <ele>20.805664</ele>
                <time>2005-10-29T09:29:43Z</time>
            </trkpt>
            <trkpt lon="100.093861" lat="15.467634">
                <ele>20.324951</ele>
                <time>2005-10-29T09:29:45Z</time>
            </trkpt>
            <trkpt lon="100.093775" lat="15.467570">
                <ele>20.324951</ele>
                <time>2005-10-29T09:29:47Z</time>
            </trkpt>
            <trkpt lon="100.092959" lat="15.467098">
                <ele>21.286377</ele>
                <time>2005-10-29T09:30:09Z</time>
            </trkpt>
            <trkpt lon="100.092616" lat="15.466669">
                <ele>23.208984</ele>
                <time>2005-10-29T09:30:28Z</time>
            </trkpt>
            <trkpt lon="100.092616" lat="15.466690">
                <ele>23.208984</ele>
                <time>2005-10-29T09:30:34Z</time>
            </trkpt>
        </trkseg>
    </trk>
</gpx>